Observation data for Goodnight on 11/11/2019      Previous  Date       Current Mesonet Observations  Soil Data  Daily Summary Page  Observations in Plain Language
KGO1 110600Z 34009KT 10/00 A2986 RMK A01 T01010002  RH  050%=      5-min Rain = 0
KGO1 110601Z 34010KT 10/00 A2986 RMK A01 T01010001  RH  050%=      5-min Rain = 0
KGO1 110602Z 33010KT 10/00 A2986 RMK A01 T01010001  RH  050%=      5-min Rain = 0
KGO1 110603Z 33010KT 10/00 A2986 RMK A01 T01020001  RH  050%=      5-min Rain = 0
KGO1 110604Z 33010KT 10/00 A2986 RMK A01 T01020001  RH  049%=      5-min Rain = 0
KGO1 110605Z 33010KT 10/00 A2986 RMK A01 T01020001  RH  050%=      5-min Rain = 0
KGO1 110606Z 33010KT 10/00 A2986 RMK A01 T01010001  RH  050%=      5-min Rain = 0
KGO1 110607Z 33010KT 10/00 A2986 RMK A01 T00990001  RH  050%=      5-min Rain = 0
KGO1 110608Z 33011KT 10/00 A2986 RMK A01 T00990001  RH  051%=      5-min Rain = 0
KGO1 110609Z 33010KT 10/00 A2986 RMK A01 T00990001  RH  051%=      5-min Rain = 0
KGO1 110610Z 33010KT 10/00 A2986 RMK A01 T00980002  RH  051%=      5-min Rain = 0
KGO1 110611Z 33011KT 10/00 A2987 RMK A01 T00970002  RH  051%=      5-min Rain = 0
KGO1 110612Z 33011KT 10/00 A2987 RMK A01 T00970002  RH  052%=      5-min Rain = 0
KGO1 110613Z 33009KT 10/00 A2987 RMK A01 T00960001  RH  051%=      5-min Rain = 0
KGO1 110614Z 33009KT 10/00 A2986 RMK A01 T00960001  RH  052%=      5-min Rain = 0
KGO1 110615Z 33009KT 10/00 A2986 RMK A01 T00960002  RH  052%=      5-min Rain = 0
KGO1 110616Z 33009KT 10/00 A2986 RMK A01 T00950002  RH  052%=      5-min Rain = 0
KGO1 110617Z 33009KT 09/00 A2986 RMK A01 T00940002  RH  052%=      5-min Rain = 0
KGO1 110618Z 33009KT 09/00 A2986 RMK A01 T00940002  RH  053%=      5-min Rain = 0
KGO1 110619Z 33010KT 09/00 A2986 RMK A01 T00930002  RH  053%=      5-min Rain = 0
KGO1 110620Z 33010KT 09/00 A2986 RMK A01 T00930003  RH  053%=      5-min Rain = 0
KGO1 110621Z 33010KT 09/00 A2987 RMK A01 T00930003  RH  054%=      5-min Rain = 0
KGO1 110622Z 33010KT 09/00 A2987 RMK A01 T00920004  RH  054%=      5-min Rain = 0
KGO1 110623Z 32010KT 09/00 A2987 RMK A01 T00910004  RH  054%=      5-min Rain = 0
KGO1 110624Z 32010KT 09/00 A2987 RMK A01 T00910004  RH  054%=      5-min Rain = 0
KGO1 110625Z 32011KT 09/00 A2987 RMK A01 T00910004  RH  054%=      5-min Rain = 0
KGO1 110626Z 32012KT 09/00 A2987 RMK A01 T00910004  RH  054%=      5-min Rain = 0
KGO1 110627Z 32013KT 09/01 A2987 RMK A01 T00910005  RH  055%=      5-min Rain = 0
KGO1 110628Z 32012KT 09/01 A2988 RMK A01 T00910005  RH  055%=      5-min Rain = 0
KGO1 110629Z 32012KT 09/01 A2988 RMK A01 T00910005  RH  055%=      5-min Rain = 0
KGO1 110630Z 32013KT 09/01 A2988 RMK A01 T00910006  RH  055%=      5-min Rain = 0
KGO1 110631Z 32012KT 09/01 A2988 RMK A01 T00900006  RH  056%=      5-min Rain = 0
KGO1 110632Z 32012KT 09/01 A2988 RMK A01 T00890006  RH  056%=      5-min Rain = 0
KGO1 110633Z 33012KT 09/01 A2988 RMK A01 T00880006  RH  056%=      5-min Rain = 0
KGO1 110634Z 32013KT 09/01 A2988 RMK A01 T00870006  RH  057%=      5-min Rain = 0
KGO1 110635Z 33010KT 09/01 A2989 RMK A01 T00870007  RH  057%=      5-min Rain = 0
KGO1 110636Z 33013KT 09/01 A2989 RMK A01 T00860007  RH  057%=      5-min Rain = 0
KGO1 110637Z 33012KT 09/01 A2989 RMK A01 T00870007  RH  058%=      5-min Rain = 0
KGO1 110638Z 33014KT 09/01 A2989 RMK A01 T00860008  RH  058%=      5-min Rain = 0
KGO1 110639Z 33013KT 09/01 A2989 RMK A01 T00860009  RH  058%=      5-min Rain = 0
KGO1 110640Z 33012KT 09/01 A2989 RMK A01 T00860010  RH  059%=      5-min Rain = 0
KGO1 110641Z 33013KT 09/01 A2989 RMK A01 T00850010  RH  059%=      5-min Rain = 0
KGO1 110642Z 33013KT 08/01 A2989 RMK A01 T00840011  RH  060%=      5-min Rain = 0
KGO1 110643Z 34014KT 08/01 A2989 RMK A01 T00840013  RH  061%=      5-min Rain = 0
KGO1 110644Z 34013KT 08/01 A2989 RMK A01 T00830013  RH  061%=      5-min Rain = 0
KGO1 110645Z 34014KT 08/02 A2989 RMK A01 T00830015  RH  062%=      5-min Rain = 0
KGO1 110646Z 34013KT 08/02 A2989 RMK A01 T00820016  RH  063%=      5-min Rain = 0
KGO1 110647Z 34015KT 08/02 A2989 RMK A01 T00810018  RH  064%=      5-min Rain = 0
KGO1 110648Z 34015KT 08/02 A2989 RMK A01 T00810019  RH  065%=      5-min Rain = 0
KGO1 110649Z 35016KT 08/02 A2989 RMK A01 T00800019  RH  065%=      5-min Rain = 0
KGO1 110650Z 34016KT 08/02 A2989 RMK A01 T00800020  RH  066%=      5-min Rain = 0
KGO1 110651Z 34016KT 08/02 A2989 RMK A01 T00800021  RH  066%=      5-min Rain = 0
KGO1 110652Z 35018KT 08/02 A2989 RMK A01 T00800022  RH  067%=      5-min Rain = 0
KGO1 110653Z 34016G21KT 08/02 A2989 RMK A01 T00800024  RH  068%=      5-min Rain = 0
KGO1 110654Z 35018G23KT 08/02 A2989 RMK A01 T00800024  RH  068%=      5-min Rain = 0
KGO1 110655Z 34018KT 08/03 A2989 RMK A01 T00800025  RH  068%=      5-min Rain = 0
KGO1 110656Z 35018KT 08/03 A2989 RMK A01 T00800026  RH  069%=      5-min Rain = 0
KGO1 110657Z 35017KT 08/03 A2989 RMK A01 T00790026  RH  069%=      5-min Rain = 0
KGO1 110658Z 35018KT 08/03 A2989 RMK A01 T00790026  RH  069%=      5-min Rain = 0
KGO1 110659Z 35016KT 08/03 A2989 RMK A01 T00790026  RH  069%=      5-min Rain = 0
KGO1 110700Z 35017KT 08/03 A2989 RMK A01 T00780026  RH  069%=      5-min Rain = 0
KGO1 110701Z 35016KT 08/03 A2989 RMK A01 T00770026  RH  070%=      5-min Rain = 0
KGO1 110702Z 35017G22KT 08/03 A2989 RMK A01 T00770026  RH  070%=      5-min Rain = 0
KGO1 110703Z 35019KT 08/03 A2989 RMK A01 T00770025  RH  070%=      5-min Rain = 0
KGO1 110704Z 35019KT 08/03 A2989 RMK A01 T00770025  RH  070%=      5-min Rain = 0
KGO1 110705Z 35017G22KT 08/03 A299 RMK A01 T00760025  RH  070%=      5-min Rain = 0
KGO1 110706Z 35021KT 08/02 A299 RMK A01 T00760024  RH  070%=      5-min Rain = 0
KGO1 110707Z 35017KT 08/02 A299 RMK A01 T00750024  RH  070%=      5-min Rain = 0
KGO1 110708Z 34020KT 08/02 A299 RMK A01 T00750023  RH  070%=      5-min Rain = 0
KGO1 110709Z 34016KT 08/02 A299 RMK A01 T00750023  RH  070%=      5-min Rain = 0
KGO1 110710Z 35018KT 07/02 A299 RMK A01 T00740023  RH  070%=      5-min Rain = 0
KGO1 110711Z 34019G25KT 07/02 A299 RMK A01 T00740023  RH  070%=      5-min Rain = 0
KGO1 110712Z 35017G23KT 07/02 A2991 RMK A01 T00730022  RH  070%=      5-min Rain = 0
KGO1 110713Z 34016KT 07/02 A2991 RMK A01 T00730022  RH  070%=      5-min Rain = 0
KGO1 110714Z 35018KT 07/02 A2991 RMK A01 T00720022  RH  071%=      5-min Rain = 0
KGO1 110715Z 34019KT 07/02 A2991 RMK A01 T00710022  RH  071%=      5-min Rain = 0
KGO1 110716Z 34020G25KT 07/02 A2991 RMK A01 T00710022  RH  071%=      5-min Rain = 0
KGO1 110717Z 34017KT 07/02 A2991 RMK A01 T00710022  RH  071%=      5-min Rain = 0
KGO1 110718Z 35021KT 07/02 A2991 RMK A01 T00700022  RH  071%=      5-min Rain = 0
KGO1 110719Z 35019G25KT 07/02 A2991 RMK A01 T00690021  RH  071%=      5-min Rain = 0
KGO1 110720Z 35020KT 07/02 A2991 RMK A01 T00690022  RH  072%=      5-min Rain = 0
KGO1 110721Z 35020KT 07/02 A2991 RMK A01 T00690022  RH  072%=      5-min Rain = 0
KGO1 110722Z 35020G25KT 07/02 A2991 RMK A01 T00680022  RH  072%=      5-min Rain = 0
KGO1 110723Z 34020KT 07/02 A2991 RMK A01 T00680022  RH  073%=      5-min Rain = 0
KGO1 110724Z 35021KT 07/02 A2991 RMK A01 T00680022  RH  073%=      5-min Rain = 0
KGO1 110725Z 34020G25KT 07/02 A2991 RMK A01 T00670022  RH  073%=      5-min Rain = 0
KGO1 110726Z 35020G27KT 07/02 A2991 RMK A01 T00670022  RH  073%=      5-min Rain = 0
KGO1 110727Z 35022KT 07/02 A2991 RMK A01 T00670022  RH  073%=      5-min Rain = 0
KGO1 110728Z 35020G25KT 07/02 A2991 RMK A01 T00670022  RH  073%=      5-min Rain = 0
KGO1 110729Z 34020G25KT 07/02 A2991 RMK A01 T00660022  RH  073%=      5-min Rain = 0
KGO1 110730Z 35018G24KT 07/02 A2991 RMK A01 T00660022  RH  074%=      5-min Rain = 0
KGO1 110731Z 35021KT 07/02 A2991 RMK A01 T00650022  RH  074%=      5-min Rain = 0
KGO1 110732Z 35021G26KT 07/02 A2991 RMK A01 T00650023  RH  074%=      5-min Rain = 0
KGO1 110733Z 35021KT 07/02 A2991 RMK A01 T00650023  RH  074%=      5-min Rain = 0
KGO1 110734Z 35022KT 07/02 A2991 RMK A01 T00650023  RH  074%=      5-min Rain = 0
KGO1 110735Z 35022G29KT 07/02 A2991 RMK A01 T00650023  RH  075%=      5-min Rain = 0
KGO1 110736Z 35020KT 07/02 A2991 RMK A01 T00650023  RH  075%=      5-min Rain = 0
KGO1 110737Z 35020G25KT 07/02 A2991 RMK A01 T00650023  RH  075%=      5-min Rain = 0
KGO1 110738Z 35019G25KT 06/02 A2991 RMK A01 T00640024  RH  075%=      5-min Rain = 0
KGO1 110739Z 36020G26KT 06/02 A2992 RMK A01 T00640024  RH  075%=      5-min Rain = 0
KGO1 110740Z 35020KT 06/02 A2991 RMK A01 T00640024  RH  076%=      5-min Rain = 0
KGO1 110741Z 35023KT 06/02 A2991 RMK A01 T00630023  RH  076%=      5-min Rain = 0
KGO1 110742Z 35021KT 06/02 A2992 RMK A01 T00630024  RH  076%=      5-min Rain = 0
KGO1 110743Z 35022G28KT 06/02 A2992 RMK A01 T00630024  RH  076%=      5-min Rain = 0
KGO1 110744Z 35023KT 06/02 A2992 RMK A01 T00630024  RH  077%=      5-min Rain = 0
KGO1 110745Z 35020G25KT 06/03 A2992 RMK A01 T00630025  RH  077%=      5-min Rain = 0
KGO1 110746Z 36019KT 06/03 A2992 RMK A01 T00620025  RH  077%=      5-min Rain = 0
KGO1 110747Z 36023KT 06/03 A2992 RMK A01 T00620025  RH  077%=      5-min Rain = 0
KGO1 110748Z 36021KT 06/02 A2992 RMK A01 T00610024  RH  077%=      5-min Rain = 0
KGO1 110749Z 35019KT 06/03 A2992 RMK A01 T00620025  RH  077%=      5-min Rain = 0
KGO1 110750Z 35020G26KT 06/03 A2992 RMK A01 T00610025  RH  078%=      5-min Rain = 0
KGO1 110751Z 35023G28KT 06/03 A2992 RMK A01 T00610025  RH  078%=      5-min Rain = 0
KGO1 110752Z 35022KT 06/03 A2992 RMK A01 T00610025  RH  078%=      5-min Rain = 0
KGO1 110753Z 35022KT 06/03 A2992 RMK A01 T00610025  RH  078%=      5-min Rain = 0
KGO1 110754Z 36020G26KT 06/03 A2992 RMK A01 T00610025  RH  078%=      5-min Rain = 0
KGO1 110755Z 35018KT 06/03 A2993 RMK A01 T00610025  RH  078%=      5-min Rain = 0
KGO1 110756Z 35018KT 06/03 A2993 RMK A01 T00610025  RH  078%=      5-min Rain = 0
KGO1 110757Z 36019G25KT 06/03 A2993 RMK A01 T00600025  RH  078%=      5-min Rain = 0
KGO1 110758Z 36020KT 06/03 A2993 RMK A01 T00600025  RH  078%=      5-min Rain = 0
KGO1 110759Z 36020KT 06/03 A2993 RMK A01 T00600025  RH  078%=      5-min Rain = 0
KGO1 110800Z 36020KT 06/03 A2993 RMK A01 T00600025  RH  078%=      5-min Rain = 0
KGO1 110801Z 35020KT 06/03 A2993 RMK A01 T00600025  RH  078%=      5-min Rain = 0
KGO1 110802Z 36020G25KT 06/03 A2993 RMK A01 T00610026  RH  078%=      5-min Rain = 0
KGO1 110803Z 36020G26KT 06/03 A2994 RMK A01 T00610026  RH  078%=      5-min Rain = 0
KGO1 110804Z 36017KT 06/03 A2994 RMK A01 T00620027  RH  078%=      5-min Rain = 0
KGO1 110805Z 36017KT 06/03 A2994 RMK A01 T00620027  RH  078%=      5-min Rain = 0
KGO1 110806Z 36019G24KT 06/03 A2994 RMK A01 T00620027  RH  078%=      5-min Rain = 0
KGO1 110807Z 00023KT 06/03 A2994 RMK A01 T00630027  RH  078%=      5-min Rain = 0
KGO1 110808Z 00024KT 06/03 A2994 RMK A01 T00630028  RH  078%=      5-min Rain = 0
KGO1 110809Z 00023KT 06/03 A2994 RMK A01 T00640027  RH  078%=      5-min Rain = 0
KGO1 110810Z 36022KT 07/03 A2994 RMK A01 T00650028  RH  077%=      5-min Rain = 0
KGO1 110811Z 36022KT 06/03 A2994 RMK A01 T00640028  RH  077%=      5-min Rain = 0
KGO1 110812Z 01020KT 07/03 A2994 RMK A01 T00650028  RH  077%=      5-min Rain = 0
KGO1 110813Z 00025KT 07/03 A2994 RMK A01 T00650028  RH  077%=      5-min Rain = 0
KGO1 110814Z 00021KT 07/03 A2994 RMK A01 T00650029  RH  077%=      5-min Rain = 0
KGO1 110815Z 00018KT 07/03 A2994 RMK A01 T00660029  RH  077%=      5-min Rain = 0
KGO1 110816Z 00023KT 07/03 A2995 RMK A01 T00660029  RH  077%=      5-min Rain = 0
KGO1 110817Z 00022G29KT 07/03 A2995 RMK A01 T00660029  RH  077%=      5-min Rain = 0
KGO1 110818Z 00023G28KT 07/03 A2995 RMK A01 T00660029  RH  077%=      5-min Rain = 0
KGO1 110819Z 00022KT 07/03 A2995 RMK A01 T00660030  RH  077%=      5-min Rain = 0
KGO1 110820Z 00020KT 07/03 A2995 RMK A01 T00660030  RH  078%=      5-min Rain = 0
KGO1 110821Z 36023KT 07/03 A2995 RMK A01 T00660030  RH  078%=      5-min Rain = 0
KGO1 110822Z 01023KT 07/03 A2995 RMK A01 T00660030  RH  078%=      5-min Rain = 0
KGO1 110823Z 01023G28KT 07/03 A2995 RMK A01 T00660030  RH  078%=      5-min Rain = 0
KGO1 110824Z 01020G27KT 07/03 A2995 RMK A01 T00660030  RH  078%=      5-min Rain = 0
KGO1 110825Z 36019G26KT 07/03 A2995 RMK A01 T00660031  RH  078%=      5-min Rain = 0
KGO1 110826Z 00024G29KT 07/03 A2995 RMK A01 T00660031  RH  078%=      5-min Rain = 0
KGO1 110827Z 36025G30KT 07/03 A2995 RMK A01 T00660031  RH  078%=      5-min Rain = 0
KGO1 110828Z 00023KT 07/03 A2995 RMK A01 T00660031  RH  078%=      5-min Rain = 0
KGO1 110829Z 36024G30KT 07/03 A2995 RMK A01 T00660031  RH  078%=      5-min Rain = 0
KGO1 110830Z 00025G30KT 07/03 A2995 RMK A01 T00660031  RH  078%=      5-min Rain = 0
KGO1 110831Z 00024G29KT 07/03 A2995 RMK A01 T00660031  RH  078%=      5-min Rain = 0
KGO1 110832Z 01022G27KT 07/03 A2995 RMK A01 T00660031  RH  079%=      5-min Rain = 0
KGO1 110833Z 00019G25KT 07/03 A2995 RMK A01 T00660032  RH  079%=      5-min Rain = 0
KGO1 110834Z 00022G31KT 07/03 A2995 RMK A01 T00660032  RH  079%=      5-min Rain = 0
KGO1 110835Z 00027KT 07/03 A2995 RMK A01 T00660031  RH  079%=      5-min Rain = 0
KGO1 110836Z 00022KT 07/03 A2995 RMK A01 T00660031  RH  078%=      5-min Rain = 0
KGO1 110837Z 36022G30KT 07/03 A2995 RMK A01 T00660031  RH  078%=      5-min Rain = 0
KGO1 110838Z 00025G30KT 07/03 A2996 RMK A01 T00660031  RH  078%=      5-min Rain = 0
KGO1 110839Z 00019KT 07/03 A2996 RMK A01 T00650030  RH  078%=      5-min Rain = 0
KGO1 110840Z 36023G28KT 07/03 A2996 RMK A01 T00650030  RH  078%=      5-min Rain = 0
KGO1 110841Z 00018G24KT 07/03 A2996 RMK A01 T00650030  RH  078%=      5-min Rain = 0
KGO1 110842Z 01019G27KT 07/03 A2996 RMK A01 T00650030  RH  078%=      5-min Rain = 0
KGO1 110843Z 01021KT 07/03 A2996 RMK A01 T00650030  RH  078%=      5-min Rain = 0
KGO1 110844Z 36022G27KT 07/03 A2996 RMK A01 T00650030  RH  078%=      5-min Rain = 0
KGO1 110845Z 36023G29KT 07/03 A2996 RMK A01 T00650030  RH  079%=      5-min Rain = 0
KGO1 110846Z 00026KT 07/03 A2996 RMK A01 T00650030  RH  079%=      5-min Rain = 0
KGO1 110847Z 00023G28KT 07/03 A2997 RMK A01 T00650030  RH  079%=      5-min Rain = 0
KGO1 110848Z 00025KT 07/03 A2997 RMK A01 T00650030  RH  079%=      5-min Rain = 0
KGO1 110849Z 00022G27KT 07/03 A2997 RMK A01 T00650031  RH  079%=      5-min Rain = 0
KGO1 110850Z 01025KT 07/03 A2997 RMK A01 T00650031  RH  079%=      5-min Rain = 0
KGO1 110851Z 00024G29KT 07/03 A2997 RMK A01 T00650031  RH  079%=      5-min Rain = 0
KGO1 110852Z 01028G33KT 07/03 A2997 RMK A01 T00650031  RH  079%=      5-min Rain = 0
KGO1 110853Z 01026G31KT 07/03 A2997 RMK A01 T00650031  RH  079%=      5-min Rain = 0
KGO1 110854Z 01020G26KT 07/03 A2997 RMK A01 T00650030  RH  079%=      5-min Rain = 0
KGO1 110855Z 00022G27KT 07/03 A2997 RMK A01 T00650031  RH  079%=      5-min Rain = 0
KGO1 110856Z 01022G27KT 07/03 A2997 RMK A01 T00650030  RH  079%=      5-min Rain = 0
KGO1 110857Z 00021KT 07/03 A2997 RMK A01 T00650030  RH  079%=      5-min Rain = 0
KGO1 110858Z 36026G32KT 07/03 A2997 RMK A01 T00650030  RH  078%=      5-min Rain = 0
KGO1 110859Z 01026G33KT 07/03 A2997 RMK A01 T00650029  RH  078%=      5-min Rain = 0
KGO1 110900Z 00025G31KT 06/03 A2997 RMK A01 T00640029  RH  078%=      5-min Rain = 0
KGO1 110901Z 01024KT 06/03 A2998 RMK A01 T00640029  RH  078%=      5-min Rain = 0
KGO1 110902Z 01025G30KT 06/03 A2998 RMK A01 T00640028  RH  078%=      5-min Rain = 0
KGO1 110903Z 01021KT 06/03 A2998 RMK A01 T00640028  RH  078%=      5-min Rain = 0
KGO1 110904Z 00026G31KT 06/03 A2998 RMK A01 T00640028  RH  078%=      5-min Rain = 0
KGO1 110905Z 00023G33KT 06/03 A2998 RMK A01 T00640028  RH  078%=      5-min Rain = 0
KGO1 110906Z 01027KT 06/03 A2998 RMK A01 T00640028  RH  078%=      5-min Rain = 0
KGO1 110907Z 00024KT 06/03 A2998 RMK A01 T00640028  RH  078%=      5-min Rain = 0
KGO1 110908Z 00026KT 06/03 A2998 RMK A01 T00640028  RH  078%=      5-min Rain = 0
KGO1 110909Z 00026KT 06/03 A2998 RMK A01 T00640028  RH  078%=      5-min Rain = 0
KGO1 110910Z 00030KT 06/03 A2999 RMK A01 T00640028  RH  078%=      5-min Rain = 0
KGO1 110911Z 00026G32KT 06/03 A2999 RMK A01 T00640028  RH  078%=      5-min Rain = 0
KGO1 110912Z 01022KT 06/03 A2999 RMK A01 T00640028  RH  078%=      5-min Rain = 0
KGO1 110913Z 00023G28KT 06/03 A2999 RMK A01 T00640028  RH  078%=      5-min Rain = 0
KGO1 110914Z 00026KT 06/03 A2999 RMK A01 T00640028  RH  078%=      5-min Rain = 0
KGO1 110915Z 36027G33KT 06/03 A2999 RMK A01 T00630027  RH  077%=      5-min Rain = 0
KGO1 110916Z 00024G29KT 06/03 A2999 RMK A01 T00630026  RH  077%=      5-min Rain = 0
KGO1 110917Z 01025G31KT 06/03 A2999 RMK A01 T00630027  RH  077%=      5-min Rain = 0
KGO1 110918Z 00025G31KT 06/03 A2999 RMK A01 T00630026  RH  077%=      5-min Rain = 0
KGO1 110919Z 00025G30KT 06/03 A2999 RMK A01 T00630027  RH  078%=      5-min Rain = 0
KGO1 110920Z 01028G35KT 06/03 A2999 RMK A01 T00630027  RH  078%=      5-min Rain = 0
KGO1 110921Z 01027G33KT 06/03 A2999 RMK A01 T00630028  RH  078%=      5-min Rain = 0
KGO1 110922Z 01027G32KT 06/03 A2999 RMK A01 T00620028  RH  079%=      5-min Rain = 0
KGO1 110923Z 01026KT 06/03 A30 RMK A01 T00620028  RH  079%=      5-min Rain = 0
KGO1 110924Z 00025G31KT 06/03 A30 RMK A01 T00620028  RH  079%=      5-min Rain = 0
KGO1 110925Z 00026G35KT 06/03 A30 RMK A01 T00620028  RH  079%=      5-min Rain = 0
KGO1 110926Z 00027G32KT 06/03 A30 RMK A01 T00620027  RH  078%=      5-min Rain = 0
KGO1 110927Z 00025G30KT 06/03 A30 RMK A01 T00620026  RH  078%=      5-min Rain = 0
KGO1 110928Z 01023G29KT 06/03 A30 RMK A01 T00620026  RH  078%=      5-min Rain = 0
KGO1 110929Z 36022G29KT 06/03 A30 RMK A01 T00610025  RH  078%=      5-min Rain = 0
KGO1 110930Z 36027G33KT 06/02 A30 RMK A01 T00610024  RH  077%=      5-min Rain = 0
KGO1 110931Z 00031G36KT 06/02 A3001 RMK A01 T00600023  RH  077%=      5-min Rain = 0
KGO1 110932Z 00027G34KT 06/02 A3001 RMK A01 T00590021  RH  077%=      5-min Rain = 0
KGO1 110933Z 36026G32KT 06/02 A3001 RMK A01 T00580020  RH  077%=      5-min Rain = 0
KGO1 110934Z 00027KT 06/02 A3001 RMK A01 T00580020  RH  077%=      5-min Rain = 0
KGO1 110935Z 00029G35KT 06/02 A3001 RMK A01 T00570019  RH  077%=      5-min Rain = 0
KGO1 110936Z 00028G36KT 06/02 A3001 RMK A01 T00560018  RH  077%=      5-min Rain = 0
KGO1 110937Z 35028G33KT 06/02 A3001 RMK A01 T00550018  RH  077%=      5-min Rain = 0
KGO1 110938Z 00025G30KT 06/02 A3002 RMK A01 T00550018  RH  077%=      5-min Rain = 0
KGO1 110939Z 00028KT 05/02 A3002 RMK A01 T00540018  RH  078%=      5-min Rain = 0
KGO1 110940Z 00028G34KT 05/02 A3002 RMK A01 T00530017  RH  078%=      5-min Rain = 0
KGO1 110941Z 00023G30KT 05/02 A3002 RMK A01 T00530017  RH  078%=      5-min Rain = 0
KGO1 110942Z 36026KT 05/02 A3002 RMK A01 T00530017  RH  078%=      5-min Rain = 0
KGO1 110943Z 00025G32KT 05/02 A3002 RMK A01 T00530016  RH  077%=      5-min Rain = 0
KGO1 110944Z 00026G35KT 05/02 A3002 RMK A01 T00520015  RH  077%=      5-min Rain = 0
KGO1 110945Z 00030G36KT 05/01 A3003 RMK A01 T00510013  RH  077%=      5-min Rain = 0
KGO1 110946Z 36030G37KT 05/01 A3003 RMK A01 T00490012  RH  077%=      5-min Rain = 0
KGO1 110947Z 36026G32KT 05/01 A3003 RMK A01 T00480011  RH  077%=      5-min Rain = 0
KGO1 110948Z 36027G33KT 05/01 A3003 RMK A01 T00470011  RH  077%=      5-min Rain = 0
KGO1 110949Z 01028G35KT 05/01 A3003 RMK A01 T00460010  RH  077%=      5-min Rain = 0
KGO1 110950Z 36032G38KT 05/01 A3003 RMK A01 T00450009  RH  077%=      5-min Rain = 0
KGO1 110951Z 36032KT 04/01 A3003 RMK A01 T00440008  RH  077%=      5-min Rain = 0
KGO1 110952Z 00029G38KT 04/01 A3004 RMK A01 T00430007  RH  077%=      5-min Rain = 0
KGO1 110953Z 00031G37KT 04/01 A3004 RMK A01 T00430006  RH  077%=      5-min Rain = 0
KGO1 110954Z 00033G38KT 04/01 A3004 RMK A01 T00420005  RH  077%=      5-min Rain = 0
KGO1 110955Z 36031G36KT 04/00 A3004 RMK A01 T00400004  RH  077%=      5-min Rain = 0
KGO1 110956Z 35032G38KT 04/00 A3004 RMK A01 T00400004  RH  078%=      5-min Rain = 0
KGO1 110957Z 36027G35KT 04/00 A3004 RMK A01 T00390004  RH  078%=      5-min Rain = 0
KGO1 110958Z 01025G31KT 04/01 A3004 RMK A01 T00390005  RH  078%=      5-min Rain = 0
KGO1 110959Z 00030G36KT 04/00 A3004 RMK A01 T00390004  RH  078%=      5-min Rain = 0
KGO1 111000Z 00024G31KT 04/00 A3004 RMK A01 T00380004  RH  078%=      5-min Rain = 0
KGO1 111001Z 00019G24KT 04/00 A3004 RMK A01 T00380004  RH  079%=      5-min Rain = 0
KGO1 111002Z 00024G31KT 04/01 A3005 RMK A01 T00380005  RH  079%=      5-min Rain = 0
KGO1 111003Z 00024G29KT 04/00 A3005 RMK A01 T00380004  RH  078%=      5-min Rain = 0
KGO1 111004Z 00025KT 04/00 A3005 RMK A01 T00380004  RH  078%=      5-min Rain = 0
KGO1 111005Z 00029G38KT 04/00 A3005 RMK A01 T00380002  RH  078%=      5-min Rain = 0
KGO1 111006Z 36028G35KT 04/00 A3005 RMK A01 T00370001  RH  077%=      5-min Rain = 0
KGO1 111007Z 00028KT 04/M00 A3006 RMK A01 T00351001  RH  077%=      5-min Rain = 0
KGO1 111008Z 36031G39KT 03/M00 A3006 RMK A01 T00341001  RH  078%=      5-min Rain = 0
KGO1 111009Z 00030G38KT 03/M00 A3006 RMK A01 T00331002  RH  078%=      5-min Rain = 0
KGO1 111010Z 35026G33KT 03/M00 A3006 RMK A01 T00321003  RH  078%=      5-min Rain = 0
KGO1 111011Z 36028G38KT 03/M00 A3006 RMK A01 T00321003  RH  078%=      5-min Rain = 0
KGO1 111012Z 01028G34KT 03/M00 A3006 RMK A01 T00311003  RH  078%=      5-min Rain = 0
KGO1 111013Z 36024KT 03/M00 A3007 RMK A01 T00311003  RH  079%=      5-min Rain = 0
KGO1 111014Z 35023G30KT 03/M00 A3007 RMK A01 T00301003  RH  079%=      5-min Rain = 0
KGO1 111015Z 36022G27KT 03/M00 A3007 RMK A01 T00301003  RH  079%=      5-min Rain = 0
KGO1 111016Z 36025G31KT 03/M00 A3007 RMK A01 T00301003  RH  079%=      5-min Rain = 0
KGO1 111017Z 36020G27KT 03/M00 A3007 RMK A01 T00291003  RH  079%=      5-min Rain = 0
KGO1 111018Z 35026G35KT 03/M00 A3007 RMK A01 T00291003  RH  080%=      5-min Rain = 0
KGO1 111019Z 36029G36KT 03/M00 A3008 RMK A01 T00271004  RH  080%=      5-min Rain = 0
KGO1 111020Z 36031G37KT 03/M00 A3008 RMK A01 T00261004  RH  080%=      5-min Rain = 0
KGO1 111021Z 36033G39KT 03/M01 A3008 RMK A01 T00251005  RH  081%=      5-min Rain = 0
KGO1 111022Z 36032KT 02/M01 A3008 RMK A01 T00241006  RH  081%=      5-min Rain = 0
KGO1 111023Z 36028G35KT 02/M01 A3008 RMK A01 T00221007  RH  081%=      5-min Rain = 0
KGO1 111024Z 36030G35KT 02/M01 A3008 RMK A01 T00221007  RH  082%=      5-min Rain = 0
KGO1 111025Z 36030G37KT 02/M01 A3008 RMK A01 T00201008  RH  082%=      5-min Rain = 0
KGO1 111026Z 35027KT 02/M01 A3008 RMK A01 T00191009  RH  082%=      5-min Rain = 0
KGO1 111027Z 35032G37KT 02/M01 A3008 RMK A01 T00181010  RH  082%=      5-min Rain = 0
KGO1 111028Z 35027G37KT 02/M01 A3008 RMK A01 T00171011  RH  082%=      5-min Rain = 0
KGO1 111029Z 35029G34KT 02/M01 A3008 RMK A01 T00161012  RH  082%=      5-min Rain = 0
KGO1 111030Z 36029G37KT 01/M01 A3009 RMK A01 T00141013  RH  082%=      5-min Rain = 0
KGO1 111031Z 35028G36KT 01/M01 A3009 RMK A01 T00131013  RH  083%=      5-min Rain = 0
KGO1 111032Z 35032KT 01/M01 A3008 RMK A01 T00131013  RH  083%=      5-min Rain = 0
KGO1 111033Z 00034KT 01/M01 A3009 RMK A01 T00121013  RH  083%=      5-min Rain = 0
KGO1 111034Z 00025G32KT 01/M01 A3009 RMK A01 T00111014  RH  083%=      5-min Rain = 0
KGO1 111035Z 35027G37KT 01/M01 A3009 RMK A01 T00111013  RH  084%=      5-min Rain = 0
KGO1 111036Z 35031G41KT 01/M01 A3009 RMK A01 T00111014  RH  083%=      5-min Rain = 0
KGO1 111037Z 35031G37KT 01/M02 A3009 RMK A01 T00101015  RH  083%=      5-min Rain = 0
KGO1 111038Z 35031G37KT 01/M02 A3009 RMK A01 T00091016  RH  083%=      5-min Rain = 0
KGO1 111039Z 35028G36KT 01/M02 A3009 RMK A01 T00091016  RH  083%=      5-min Rain = 0
KGO1 111040Z 35029G37KT 01/M02 A3009 RMK A01 T00081017  RH  083%=      5-min Rain = 0
KGO1 111041Z 35034G41KT 01/M02 A3009 RMK A01 T00061019  RH  083%=      5-min Rain = 0
KGO1 111042Z 35029G35KT 01/M02 A3009 RMK A01 T00061019  RH  083%=      5-min Rain = 0
KGO1 111043Z 35029G35KT 01/M02 A301 RMK A01 T00051020  RH  083%=      5-min Rain = 0
KGO1 111044Z 35023G29KT 00/M02 A301 RMK A01 T00041021  RH  083%=      5-min Rain = 0
KGO1 111045Z 35023KT 00/M02 A301 RMK A01 T00041021  RH  083%=      5-min Rain = 0
KGO1 111046Z 34029G37KT 00/M02 A301 RMK A01 T00031022  RH  083%=      5-min Rain = 0
KGO1 111047Z 36028G34KT 00/M02 A301 RMK A01 T00021023  RH  083%=      5-min Rain = 0
KGO1 111048Z 35030G38KT 00/M02 A301 RMK A01 T00021023  RH  083%=      5-min Rain = 0
KGO1 111049Z 35030G38KT 00/M02 A301 RMK A01 T00011024  RH  083%=      5-min Rain = 0
KGO1 111050Z 36034KT 00/M02 A301 RMK A01 T00011024  RH  083%=      5-min Rain = 0
KGO1 111051Z 35031G39KT 00/02 A301 RMK A01 T00000-24  RH  084%=      5-min Rain = 0
KGO1 111052Z 00035G41KT 00/03 A301 RMK A01 T00-00-25  RH  084%=      5-min Rain = 0
KGO1 111053Z 36030G35KT 00/03 A3011 RMK A01 T00-00-25  RH  084%=      5-min Rain = 0
KGO1 111054Z 36033G40KT M00/M03 A3011 RMK A01 T10011025  RH  084%=      5-min Rain = 0
KGO1 111055Z 00034G39KT M00/M03 A3011 RMK A01 T10011025  RH  084%=      5-min Rain = 0
KGO1 111056Z 01033G39KT M00/M03 A3011 RMK A01 T10011025  RH  084%=      5-min Rain = 0
KGO1 111057Z 01024G33KT M00/M03 A3011 RMK A01 T10011025  RH  084%=      5-min Rain = 0
KGO1 111058Z 36028G36KT M00/M03 A3011 RMK A01 T10011025  RH  084%=      5-min Rain = 0
KGO1 111059Z 36030G36KT M00/M03 A3011 RMK A01 T10011025  RH  084%=      5-min Rain = 0
KGO1 111100Z 36033G41KT M00/M03 A3011 RMK A01 T10011025  RH  084%=      5-min Rain = 0
KGO1 111101Z 36033G40KT M00/M03 A3012 RMK A01 T10011026  RH  083%=      5-min Rain = 0
KGO1 111102Z 01033G41KT M00/M03 A3012 RMK A01 T10011026  RH  083%=      5-min Rain = 0
KGO1 111103Z 00033G42KT M00/M03 A3012 RMK A01 T10011026  RH  083%=      5-min Rain = 0
KGO1 111104Z 36029G34KT M00/M03 A3012 RMK A01 T10011026  RH  083%=      5-min Rain = 0
KGO1 111105Z 36024G35KT M00/M03 A3012 RMK A01 T10011027  RH  083%=      5-min Rain = 0
KGO1 111106Z 00031G37KT M00/M03 A3012 RMK A01 T10011027  RH  083%=      5-min Rain = 0
KGO1 111107Z 36032G45KT M00/M03 A3012 RMK A01 T10011027  RH  083%=      5-min Rain = 0
KGO1 111108Z 00039G46KT M00/M03 A3012 RMK A01 T10011027  RH  083%=      5-min Rain = 0
KGO1 111109Z 36037G43KT M00/M03 A3012 RMK A01 T10021028  RH  083%=      5-min Rain = 0
KGO1 111110Z 36032G38KT M00/M03 A3012 RMK A01 T10021028  RH  083%=      5-min Rain = 0
KGO1 111111Z 35035G42KT M00/M03 A3012 RMK A01 T10021028  RH  083%=      5-min Rain = 0
KGO1 111112Z 00033G38KT M00/M03 A3012 RMK A01 T10021028  RH  083%=      5-min Rain = 0
KGO1 111113Z 00033G41KT M00/M03 A3012 RMK A01 T10021028  RH  083%=      5-min Rain = 0
KGO1 111114Z 00034G41KT M00/M03 A3012 RMK A01 T10021028  RH  083%=      5-min Rain = 0
KGO1 111115Z 00031G36KT M00/M03 A3012 RMK A01 T10021028  RH  083%=      5-min Rain = 0
KGO1 111116Z 36029G35KT M00/M03 A3013 RMK A01 T10021028  RH  083%=      5-min Rain = 0
KGO1 111117Z 00032G42KT M00/M03 A3013 RMK A01 T10021029  RH  082%=      5-min Rain = 0
KGO1 111118Z 36029KT M00/M03 A3013 RMK A01 T10021029  RH  082%=      5-min Rain = 0
KGO1 111119Z 35026G33KT M00/M03 A3013 RMK A01 T10021029  RH  082%=      5-min Rain = 0
KGO1 111120Z 35026G32KT M00/M03 A3014 RMK A01 T10021030  RH  082%=      5-min Rain = 0
KGO1 111121Z 36023G29KT M00/M03 A3014 RMK A01 T10021030  RH  082%=      5-min Rain = 0
KGO1 111122Z 36025KT M00/M03 A3014 RMK A01 T10021030  RH  082%=      5-min Rain = 0
KGO1 111123Z 00023G28KT M00/M03 A3014 RMK A01 T10021030  RH  082%=      5-min Rain = 0
KGO1 111124Z 00027G32KT M00/M03 A3015 RMK A01 T10021030  RH  082%=      5-min Rain = 0
KGO1 111125Z 36022G28KT M00/M03 A3015 RMK A01 T10021030  RH  082%=      5-min Rain = 0
KGO1 111126Z 36022G31KT M00/M03 A3015 RMK A01 T10021030  RH  082%=      5-min Rain = 0
KGO1 111127Z 35029G34KT M00/M03 A3015 RMK A01 T10031031  RH  082%=      5-min Rain = 0
KGO1 111128Z 36031KT M00/M03 A3016 RMK A01 T10041032  RH  081%=      5-min Rain = 0
KGO1 111129Z 35026KT M00/M03 A3016 RMK A01 T10041032  RH  081%=      5-min Rain = 0
KGO1 111130Z 35024KT M00/M03 A3016 RMK A01 T10041032  RH  082%=      5-min Rain = 0
KGO1 111131Z 35026G32KT M01/M03 A3016 RMK A01 T10051032  RH  082%=      5-min Rain = 0
KGO1 111132Z 36030G38KT M01/M03 A3016 RMK A01 T10051032  RH  082%=      5-min Rain = 0
KGO1 111133Z 36031G37KT M01/M03 A3017 RMK A01 T10051033  RH  082%=      5-min Rain = 0
KGO1 111134Z 00026G31KT M01/M03 A3017 RMK A01 T10061033  RH  082%=      5-min Rain = 0
KGO1 111135Z 01026G38KT M01/M03 A3017 RMK A01 T10061033  RH  082%=      5-min Rain = 0
KGO1 111136Z 00030KT M01/M03 A3017 RMK A01 T10061033  RH  082%=      5-min Rain = 0
KGO1 111137Z 01032G39KT M01/M03 A3017 RMK A01 T10071033  RH  082%=      5-min Rain = 0
KGO1 111138Z 01031G38KT M01/M03 A3018 RMK A01 T10071033  RH  083%=      5-min Rain = 0
KGO1 111139Z 01032G41KT M01/M03 A3018 RMK A01 T10071033  RH  083%=      5-min Rain = 0
KGO1 111140Z 01033G38KT M01/M03 A3018 RMK A01 T10081033  RH  083%=      5-min Rain = 0
KGO1 111141Z 00032G38KT M01/M03 A3018 RMK A01 T10081033  RH  083%=      5-min Rain = 0
KGO1 111142Z 01028G34KT M01/M03 A3018 RMK A01 T10081033  RH  084%=      5-min Rain = 0
KGO1 111143Z 00021G28KT M01/M03 A3018 RMK A01 T10091032  RH  084%=      5-min Rain = 0
KGO1 111144Z 00036G44KT M01/M03 A3018 RMK A01 T10091032  RH  084%=      5-min Rain = 0
KGO1 111145Z 00027G35KT M01/M03 A3018 RMK A01 T10101033  RH  084%=      5-min Rain = 0
KGO1 111146Z 01031G38KT M01/M03 A3019 RMK A01 T10091032  RH  084%=      5-min Rain = 0
KGO1 111147Z 00034G39KT M01/M03 A3019 RMK A01 T10101033  RH  085%=      5-min Rain = 0
KGO1 111148Z 00031G37KT M01/M03 A3019 RMK A01 T10101033  RH  085%=      5-min Rain = 0
KGO1 111149Z 01030KT M01/M03 A3019 RMK A01 T10111033  RH  085%=      5-min Rain = 0
KGO1 111150Z 00031KT M01/M03 A3019 RMK A01 T10111032  RH  085%=      5-min Rain = 0
KGO1 111151Z 00027G37KT M01/M03 A302 RMK A01 T10111032  RH  085%=      5-min Rain = 0
KGO1 111152Z 00029G39KT M01/M03 A302 RMK A01 T10111032  RH  085%=      5-min Rain = 0
KGO1 111153Z 00031G38KT M01/M03 A302 RMK A01 T10111032  RH  086%=      5-min Rain = 0
KGO1 111154Z 01030G36KT M01/M03 A302 RMK A01 T10111031  RH  086%=      5-min Rain = 0
KGO1 111155Z 00031G37KT M01/M03 A302 RMK A01 T10111031  RH  086%=      5-min Rain = 0
KGO1 111156Z 01029G37KT M01/M03 A302 RMK A01 T10111031  RH  086%=      5-min Rain = 0
KGO1 111157Z 01032G37KT M01/M03 A302 RMK A01 T10111031  RH  087%=      5-min Rain = 0
KGO1 111158Z 01030G36KT M01/M03 A302 RMK A01 T10111031  RH  087%=      5-min Rain = 0
KGO1 111159Z 00030G37KT M01/M03 A302 RMK A01 T10111031  RH  087%=      5-min Rain = 0
KGO1 111200Z 01029G34KT M01/M03 A302 RMK A01 T10111030  RH  087%=      5-min Rain = 0
KGO1 111201Z 00024G30KT M01/M03 A302 RMK A01 T10121031  RH  087%=      5-min Rain = 0
KGO1 111202Z 00024KT M01/M03 A3021 RMK A01 T10121030  RH  087%=      5-min Rain = 0
KGO1 111203Z 01023G29KT M01/M03 A3021 RMK A01 T10121030  RH  087%=      5-min Rain = 0
KGO1 111204Z 00019G25KT M01/M03 A3021 RMK A01 T10111030  RH  087%=      5-min Rain = 0
KGO1 111205Z 00021G31KT M01/M03 A3021 RMK A01 T10111030  RH  087%=      5-min Rain = 0
KGO1 111206Z 00026G32KT M01/M03 A3021 RMK A01 T10111030  RH  087%=      5-min Rain = 0
KGO1 111207Z 00025KT M01/M03 A3021 RMK A01 T10111030  RH  087%=      5-min Rain = 0
KGO1 111208Z 00029G36KT M01/M03 A3021 RMK A01 T10121030  RH  088%=      5-min Rain = 0
KGO1 111209Z 00029G35KT M01/M03 A3021 RMK A01 T10121030  RH  088%=      5-min Rain = 0
KGO1 111210Z 00028KT M01/M03 A3021 RMK A01 T10131030  RH  088%=      5-min Rain = 0
KGO1 111211Z 00028G35KT M01/M03 A3021 RMK A01 T10131030  RH  088%=      5-min Rain = 0
KGO1 111212Z 36026G32KT M01/M03 A3021 RMK A01 T10141030  RH  089%=      5-min Rain = 0
KGO1 111213Z 36027KT M01/M03 A3021 RMK A01 T10141030  RH  089%=      5-min Rain = 0
KGO1 111214Z 36026KT M01/M03 A3022 RMK A01 T10141031  RH  089%=      5-min Rain = 0
KGO1 111215Z 00026G37KT M01/M03 A3022 RMK A01 T10141031  RH  089%=      5-min Rain = 0
KGO1 111216Z 00028G35KT M02/M03 A3022 RMK A01 T10151031  RH  088%=      5-min Rain = 0
KGO1 111217Z 36029G37KT M02/M03 A3022 RMK A01 T10161033  RH  089%=      5-min Rain = 0
KGO1 111218Z 00033G38KT M02/M03 A3022 RMK A01 T10181034  RH  089%=      5-min Rain = 0
KGO1 111219Z 01031KT M02/M03 A3022 RMK A01 T10181034  RH  089%=      5-min Rain = 0
KGO1 111220Z 01025G31KT M02/M03 A3023 RMK A01 T10181034  RH  089%=      5-min Rain = 0
KGO1 111221Z 00026G32KT M02/M03 A3022 RMK A01 T10181033  RH  089%=      5-min Rain = 0
KGO1 111222Z 36031G39KT M02/M03 A3023 RMK A01 T10181034  RH  089%=      5-min Rain = 0
KGO1 111223Z 00030G37KT M02/M03 A3023 RMK A01 T10191034  RH  089%=      5-min Rain = 0
KGO1 111224Z 01026G34KT M02/M04 A3023 RMK A01 T10191035  RH  089%=      5-min Rain = 0
KGO1 111225Z 01030G36KT M02/M03 A3023 RMK A01 T10191034  RH  089%=      5-min Rain = 0
KGO1 111226Z 01028G35KT M02/M03 A3023 RMK A01 T10191034  RH  090%=      5-min Rain = 0
KGO1 111227Z 01025G33KT M02/M03 A3024 RMK A01 T10191034  RH  090%=      5-min Rain = 0
KGO1 111228Z 01025KT M02/M03 A3024 RMK A01 T10191034  RH  090%=      5-min Rain = 0
KGO1 111229Z 01026G34KT M02/M03 A3024 RMK A01 T10191034  RH  090%=      5-min Rain = 0
KGO1 111230Z 00031KT M02/M03 A3024 RMK A01 T10191034  RH  090%=      5-min Rain = 0
KGO1 111231Z 00030G38KT M02/M03 A3024 RMK A01 T10191034  RH  090%=      5-min Rain = 0
KGO1 111232Z 01031G36KT M02/M04 A3024 RMK A01 T10201035  RH  090%=      5-min Rain = 0
KGO1 111233Z 00028G33KT M02/M04 A3024 RMK A01 T10211037  RH  089%=      5-min Rain = 0
KGO1 111234Z 36034G39KT M02/M04 A3024 RMK A01 T10221038  RH  089%=      5-min Rain = 0
KGO1 111235Z 35031G39KT M02/M04 A3024 RMK A01 T10231038  RH  089%=      5-min Rain = 0
KGO1 111236Z 35029G34KT M02/M04 A3024 RMK A01 T10231038  RH  090%=      5-min Rain = 0
KGO1 111237Z 35029G34KT M02/M04 A3024 RMK A01 T10241038  RH  090%=      5-min Rain = 0
KGO1 111238Z 36029G39KT M02/M04 A3024 RMK A01 T10241039  RH  090%=      5-min Rain = 0
KGO1 111239Z 36025G31KT M03/M04 A3024 RMK A01 T10251039  RH  090%=      5-min Rain = 0
KGO1 111240Z 36025G33KT M03/M04 A3024 RMK A01 T10251039  RH  090%=      5-min Rain = 0
KGO1 111241Z 00020KT M03/M04 A3025 RMK A01 T10251039  RH  090%=      5-min Rain = 0
KGO1 111242Z 36024G32KT M03/M04 A3025 RMK A01 T10251039  RH  090%=      5-min Rain = 0
KGO1 111243Z 00034KT M03/M04 A3025 RMK A01 T10251039  RH  090%=      5-min Rain = 0
KGO1 111244Z 00033G38KT M03/M04 A3025 RMK A01 T10251040  RH  089%=      5-min Rain = 0
KGO1 111245Z 00030G36KT M03/M04 A3025 RMK A01 T10251040  RH  089%=      5-min Rain = 0
KGO1 111246Z 00026G31KT M03/M04 A3025 RMK A01 T10251040  RH  089%=      5-min Rain = 0
KGO1 111247Z 00025G31KT M03/M04 A3025 RMK A01 T10251040  RH  089%=      5-min Rain = 0
KGO1 111248Z 01029G34KT M03/M04 A3025 RMK A01 T10251041  RH  089%=      5-min Rain = 0
KGO1 111249Z 36027G33KT M03/M04 A3025 RMK A01 T10251041  RH  089%=      5-min Rain = 0
KGO1 111250Z 36026G33KT M03/M04 A3025 RMK A01 T10251041  RH  089%=      5-min Rain = 0
KGO1 111251Z 35024KT M03/M04 A3025 RMK A01 T10261042  RH  089%=      5-min Rain = 0
KGO1 111252Z 35023KT M03/M04 A3025 RMK A01 T10261042  RH  089%=      5-min Rain = 0
KGO1 111253Z 35024G30KT M03/M04 A3025 RMK A01 T10271042  RH  089%=      5-min Rain = 0
KGO1 111254Z 35025G32KT M03/M04 A3025 RMK A01 T10271042  RH  090%=      5-min Rain = 0
KGO1 111255Z 36027G32KT M03/M04 A3026 RMK A01 T10271042  RH  090%=      5-min Rain = 0
KGO1 111256Z 35028G34KT M03/M04 A3026 RMK A01 T10281042  RH  090%=      5-min Rain = 0
KGO1 111257Z 35029KT M03/M04 A3026 RMK A01 T10281042  RH  090%=      5-min Rain = 0
KGO1 111258Z 36030G35KT M03/M04 A3026 RMK A01 T10281042  RH  090%=      5-min Rain = 0
KGO1 111259Z 01028G37KT M03/M04 A3027 RMK A01 T10281041  RH  090%=      5-min Rain = 0
KGO1 111300Z 00032G37KT M03/M04 A3027 RMK A01 T10281043  RH  090%=      5-min Rain = 0
KGO1 111301Z 00030G39KT M03/M05 A3027 RMK A01 T10291045  RH  089%=      5-min Rain = 0
KGO1 111302Z 00032G41KT M03/M05 A3027 RMK A01 T10301045  RH  089%=      5-min Rain = 0
KGO1 111303Z 35033G39KT M03/M05 A3027 RMK A01 T10301046  RH  089%=      5-min Rain = 0
KGO1 111304Z 00031G40KT M03/M05 A3027 RMK A01 T10301046  RH  089%=      5-min Rain = 0
KGO1 111305Z 00033KT M03/M05 A3027 RMK A01 T10301045  RH  089%=      5-min Rain = 0
KGO1 111306Z 00032G38KT M03/M05 A3027 RMK A01 T10301045  RH  089%=      5-min Rain = 0
KGO1 111307Z 00030G37KT M03/M05 A3027 RMK A01 T10311046  RH  089%=      5-min Rain = 0
KGO1 111308Z 00032G39KT M03/M05 A3027 RMK A01 T10301045  RH  090%=      5-min Rain = 0
KGO1 111309Z 36030G39KT M03/M05 A3027 RMK A01 T10311045  RH  090%=      5-min Rain = 0
KGO1 111310Z 00032G39KT M03/M05 A3027 RMK A01 T10311045  RH  090%=      5-min Rain = 0
KGO1 111311Z 01034G43KT M03/M05 A3028 RMK A01 T10311045  RH  090%=      5-min Rain = 0
KGO1 111312Z 36031G39KT M03/M05 A3028 RMK A01 T10311046  RH  090%=      5-min Rain = 0
KGO1 111313Z 35031G38KT M03/M05 A3028 RMK A01 T10321046  RH  090%=      5-min Rain = 0
KGO1 111314Z 36032G38KT M03/M05 A3028 RMK A01 T10321046  RH  090%=      5-min Rain = 0
KGO1 111315Z 36029G35KT M03/M05 A3028 RMK A01 T10321046  RH  090%=      5-min Rain = 0
KGO1 111316Z 00029KT M03/M05 A3028 RMK A01 T10321046  RH  090%=      5-min Rain = 0
KGO1 111317Z 36031G38KT M03/M05 A3028 RMK A01 T10311046  RH  090%=      5-min Rain = 0
KGO1 111318Z 00028G35KT M03/M05 A3028 RMK A01 T10311046  RH  090%=      5-min Rain = 0
KGO1 111319Z 36028G33KT M03/M05 A3028 RMK A01 T10321046  RH  090%=      5-min Rain = 0
KGO1 111320Z 00027G34KT M03/M05 A3028 RMK A01 T10311045  RH  090%=      5-min Rain = 0
KGO1 111321Z 00029G34KT M03/M05 A3029 RMK A01 T10311045  RH  090%=      5-min Rain = 0
KGO1 111322Z 00030KT M03/M05 A3029 RMK A01 T10321046  RH  090%=      5-min Rain = 0
KGO1 111323Z 00027G32KT M03/M05 A3029 RMK A01 T10321046  RH  090%=      5-min Rain = 0
KGO1 111324Z 36028G36KT M03/M05 A3029 RMK A01 T10321046  RH  090%=      5-min Rain = 0
KGO1 111325Z 36027G35KT M03/M05 A3029 RMK A01 T10331047  RH  090%=      5-min Rain = 0
KGO1 111326Z 35029G39KT M03/M05 A3028 RMK A01 T10341048  RH  090%=      5-min Rain = 0
KGO1 111327Z 35029G34KT M04/M05 A3029 RMK A01 T10361050  RH  090%=      5-min Rain = 0
KGO1 111328Z 35026G34KT M04/M05 A3029 RMK A01 T10371051  RH  090%=      5-min Rain = 0
KGO1 111329Z 35031G39KT M04/M05 A3029 RMK A01 T10371050  RH  090%=      5-min Rain = 0
KGO1 111330Z 35030G37KT M04/M05 A3029 RMK A01 T10371051  RH  090%=      5-min Rain = 0
KGO1 111331Z 00029G35KT M04/M05 A3029 RMK A01 T10371052  RH  090%=      5-min Rain = 0
KGO1 111332Z 36030KT M04/M05 A3029 RMK A01 T10381052  RH  090%=      5-min Rain = 0
KGO1 111333Z 36031G39KT M04/M05 A3029 RMK A01 T10381053  RH  090%=      5-min Rain = 0
KGO1 111334Z 35030G39KT M04/M05 A3029 RMK A01 T10381053  RH  090%=      5-min Rain = 0
KGO1 111335Z 36035G41KT M04/M05 A3029 RMK A01 T10391053  RH  090%=      5-min Rain = 0
KGO1 111336Z 36032G40KT M04/M05 A303 RMK A01 T10391054  RH  089%=      5-min Rain = 0
KGO1 111337Z 36032G38KT M04/M05 A303 RMK A01 T10391054  RH  089%=      5-min Rain = 0
KGO1 111338Z 36026G33KT M04/M05 A303 RMK A01 T10391054  RH  089%=      5-min Rain = 0
KGO1 111339Z 00026G40KT M04/M05 A303 RMK A01 T10391054  RH  089%=      5-min Rain = 0
KGO1 111340Z 00034G41KT M04/M06 A303 RMK A01 T10391055  RH  089%=      5-min Rain = 0
KGO1 111341Z 36035G42KT M04/M06 A303 RMK A01 T10401056  RH  089%=      5-min Rain = 0
KGO1 111342Z 00034KT M04/M06 A303 RMK A01 T10401056  RH  088%=      5-min Rain = 0
KGO1 111343Z 00032G39KT M04/M06 A303 RMK A01 T10401057  RH  088%=      5-min Rain = 0
KGO1 111344Z 00031G37KT M04/M06 A303 RMK A01 T10401056  RH  088%=      5-min Rain = 0
KGO1 111345Z 00035G44KT M04/M06 A303 RMK A01 T10401057  RH  088%=      5-min Rain = 0
KGO1 111346Z 01031G38KT M04/M06 A303 RMK A01 T10401057  RH  088%=      5-min Rain = 0
KGO1 111347Z 00032G39KT M04/M06 A303 RMK A01 T10401056  RH  088%=      5-min Rain = 0
KGO1 111348Z 00030G36KT M04/M06 A303 RMK A01 T10401056  RH  088%=      5-min Rain = 0
KGO1 111349Z 00027G33KT M04/M06 A303 RMK A01 T10401056  RH  089%=      5-min Rain = 0
KGO1 111350Z 00032G39KT M04/M06 A303 RMK A01 T10401055  RH  089%=      5-min Rain = 0
KGO1 111351Z 00030G37KT M04/M06 A303 RMK A01 T10401055  RH  089%=      5-min Rain = 0
KGO1 111352Z 00026G31KT M04/M05 A303 RMK A01 T10401054  RH  090%=      5-min Rain = 0
KGO1 111353Z 36023G30KT M04/M05 A303 RMK A01 T10401054  RH  090%=      5-min Rain = 0
KGO1 111354Z 36027G34KT M04/M05 A303 RMK A01 T10391053  RH  090%=      5-min Rain = 0
KGO1 111355Z 36026G33KT M04/M05 A303 RMK A01 T10391053  RH  091%=      5-min Rain = 0
KGO1 111356Z 36027G32KT M04/M05 A303 RMK A01 T10391052  RH  091%=      5-min Rain = 0
KGO1 111357Z 35024G29KT M04/M05 A3031 RMK A01 T10401052  RH  091%=      5-min Rain = 0
KGO1 111358Z 00031G40KT M04/M05 A3031 RMK A01 T10401052  RH  091%=      5-min Rain = 0
KGO1 111359Z 36032G39KT M04/M05 A3031 RMK A01 T10411054  RH  091%=      5-min Rain = 0
KGO1 111400Z 01032G41KT M04/M06 A3031 RMK A01 T10421056  RH  089%=      5-min Rain = 0
KGO1 111401Z 01032G39KT M04/M06 A3031 RMK A01 T10421058  RH  088%=      5-min Rain = 0
KGO1 111402Z 01032G42KT M04/M06 A3032 RMK A01 T10421059  RH  088%=      5-min Rain = 0
KGO1 111403Z 36027G32KT M04/M06 A3032 RMK A01 T10421059  RH  088%=      5-min Rain = 0
KGO1 111404Z 00032G39KT M04/M06 A3032 RMK A01 T10421059  RH  088%=      5-min Rain = 0
KGO1 111405Z 36032G39KT M04/M06 A3032 RMK A01 T10421059  RH  088%=      5-min Rain = 0
KGO1 111406Z 00029G34KT M04/M06 A3032 RMK A01 T10421060  RH  088%=      5-min Rain = 0
KGO1 111407Z 36030G37KT M04/M06 A3032 RMK A01 T10431060  RH  088%=      5-min Rain = 0
KGO1 111408Z 36030G37KT M04/M06 A3032 RMK A01 T10421059  RH  088%=      5-min Rain = 0
KGO1 111409Z 01029G37KT M04/M06 A3032 RMK A01 T10421059  RH  088%=      5-min Rain = 0
KGO1 111410Z 00032G39KT M04/M06 A3032 RMK A01 T10421059  RH  088%=      5-min Rain = 0
KGO1 111411Z 00026G34KT M04/M06 A3032 RMK A01 T10421058  RH  089%=      5-min Rain = 0
KGO1 111412Z 35031G41KT M04/M06 A3032 RMK A01 T10421058  RH  089%=      5-min Rain = 0
KGO1 111413Z 36032G40KT M04/M06 A3032 RMK A01 T10431058  RH  089%=      5-min Rain = 0
KGO1 111414Z 36029G37KT M04/M06 A3033 RMK A01 T10431058  RH  090%=      5-min Rain = 0
KGO1 111415Z 36030G40KT M04/M06 A3033 RMK A01 T10431057  RH  090%=      5-min Rain = 0
KGO1 111416Z 35033G39KT M04/M06 A3033 RMK A01 T10431058  RH  090%=      5-min Rain = 0
KGO1 111417Z 36028G35KT M04/M06 A3033 RMK A01 T10441059  RH  089%=      5-min Rain = 0
KGO1 111418Z 36029G38KT M04/M06 A3033 RMK A01 T10441059  RH  089%=      5-min Rain = 0
KGO1 111419Z 36030G36KT M05/M06 A3033 RMK A01 T10451060  RH  089%=      5-min Rain = 0
KGO1 111420Z 36030KT M05/M06 A3033 RMK A01 T10461061  RH  090%=      5-min Rain = 0
KGO1 111421Z 36029G34KT M05/M06 A3034 RMK A01 T10471060  RH  090%=      5-min Rain = 0
KGO1 111422Z 36034G39KT M05/M06 A3034 RMK A01 T10471060  RH  090%=      5-min Rain = 0
KGO1 111423Z 36033G40KT M05/M06 A3034 RMK A01 T10471062  RH  089%=      5-min Rain = 0
KGO1 111424Z 00032KT M05/M06 A3034 RMK A01 T10471063  RH  089%=      5-min Rain = 0
KGO1 111425Z 00038G43KT M05/M06 A3034 RMK A01 T10471064  RH  088%=      5-min Rain = 0
KGO1 111426Z 36035G41KT M05/M07 A3034 RMK A01 T10481066  RH  087%=      5-min Rain = 0
KGO1 111427Z 36035G42KT M05/M07 A3034 RMK A01 T10481067  RH  087%=      5-min Rain = 0
KGO1 111428Z 36032G37KT M05/M07 A3034 RMK A01 T10491069  RH  086%=      5-min Rain = 0
KGO1 111429Z 36027KT M05/M07 A3035 RMK A01 T10491069  RH  086%=      5-min Rain = 0
KGO1 111430Z 35028G35KT M05/M07 A3035 RMK A01 T10491069  RH  086%=      5-min Rain = 0
KGO1 111431Z 36032G40KT M05/M07 A3035 RMK A01 T10501070  RH  085%=      5-min Rain = 0
KGO1 111432Z 36029G39KT M05/M07 A3035 RMK A01 T10501072  RH  085%=      5-min Rain = 0
KGO1 111433Z 00035KT M05/M07 A3035 RMK A01 T10511073  RH  084%=      5-min Rain = 0
KGO1 111434Z 36030G38KT M05/M07 A3036 RMK A01 T10511073  RH  085%=      5-min Rain = 0
KGO1 111435Z 35033G43KT M05/M07 A3036 RMK A01 T10521073  RH  085%=      5-min Rain = 0
KGO1 111436Z 35033G42KT M05/M07 A3036 RMK A01 T10511073  RH  085%=      5-min Rain = 0
KGO1 111437Z 36026G35KT M05/M07 A3036 RMK A01 T10521073  RH  085%=      5-min Rain = 0
KGO1 111438Z 36026G31KT M05/M07 A3036 RMK A01 T10521073  RH  086%=      5-min Rain = 0
KGO1 111439Z 36028KT M05/M07 A3036 RMK A01 T10521072  RH  086%=      5-min Rain = 0
KGO1 111440Z 35028G35KT M05/M07 A3036 RMK A01 T10521071  RH  086%=      5-min Rain = 0
KGO1 111441Z 36027G33KT M05/M07 A3036 RMK A01 T10521071  RH  086%=      5-min Rain = 0
KGO1 111442Z 00026G37KT M05/M07 A3036 RMK A01 T10511070  RH  087%=      5-min Rain = 0
KGO1 111443Z 00025G31KT M05/M07 A3037 RMK A01 T10521071  RH  087%=      5-min Rain = 0
KGO1 111444Z 00026KT M05/M07 A3037 RMK A01 T10521070  RH  087%=      5-min Rain = 0
KGO1 111445Z 00025G30KT M05/M07 A3037 RMK A01 T10511070  RH  087%=      5-min Rain = 0
KGO1 111446Z 00024G29KT M05/M07 A3037 RMK A01 T10521070  RH  087%=      5-min Rain = 0
KGO1 111447Z 00024G32KT M05/M07 A3037 RMK A01 T10521069  RH  087%=      5-min Rain = 0
KGO1 111448Z 35024G31KT M05/M07 A3037 RMK A01 T10521069  RH  088%=      5-min Rain = 0
KGO1 111449Z 36023G29KT M05/M07 A3037 RMK A01 T10511069  RH  088%=      5-min Rain = 0
KGO1 111450Z 00024G35KT M05/M07 A3037 RMK A01 T10521069  RH  087%=      5-min Rain = 0
KGO1 111451Z 00028G35KT M05/M07 A3037 RMK A01 T10511069  RH  087%=      5-min Rain = 0
KGO1 111452Z 00032G39KT M05/M07 A3037 RMK A01 T10511070  RH  087%=      5-min Rain = 0
KGO1 111453Z 00031G37KT M05/M07 A3037 RMK A01 T10521071  RH  086%=      5-min Rain = 0
KGO1 111454Z 00031G36KT M05/M07 A3037 RMK A01 T10521071  RH  086%=      5-min Rain = 0
KGO1 111455Z 00029G37KT M05/M07 A3037 RMK A01 T10521071  RH  086%=      5-min Rain = 0
KGO1 111456Z 00029G38KT M05/M07 A3037 RMK A01 T10521072  RH  086%=      5-min Rain = 0
KGO1 111457Z 00030G37KT M05/M07 A3037 RMK A01 T10521072  RH  086%=      5-min Rain = 0
KGO1 111458Z 01029G37KT M05/M07 A3037 RMK A01 T10521072  RH  086%=      5-min Rain = 0
KGO1 111459Z 01030G37KT M05/M07 A3037 RMK A01 T10521072  RH  086%=      5-min Rain = 0
KGO1 111500Z 01033G39KT M05/M07 A3037 RMK A01 T10521071  RH  086%=      5-min Rain = 0
KGO1 111501Z 01030G37KT M05/M07 A3037 RMK A01 T10521071  RH  087%=      5-min Rain = 0
KGO1 111502Z 01026G35KT M05/M07 A3037 RMK A01 T10521070  RH  087%=      5-min Rain = 0
KGO1 111503Z 01026G34KT M05/M07 A3037 RMK A01 T10521070  RH  087%=      5-min Rain = 0
KGO1 111504Z 01030KT M05/M07 A3037 RMK A01 T10521070  RH  087%=      5-min Rain = 0
KGO1 111505Z 01027KT M05/M07 A3037 RMK A01 T10521070  RH  087%=      5-min Rain = 0
KGO1 111506Z 00027KT M05/M07 A3037 RMK A01 T10521069  RH  088%=      5-min Rain = 0
KGO1 111507Z 00022G27KT M05/M07 A3037 RMK A01 T10521069  RH  088%=      5-min Rain = 0
KGO1 111508Z 01025G34KT M05/M07 A3037 RMK A01 T10521068  RH  088%=      5-min Rain = 0
KGO1 111509Z 00028G35KT M05/M07 A3038 RMK A01 T10521069  RH  088%=      5-min Rain = 0
KGO1 111510Z 01030G37KT M05/M07 A3038 RMK A01 T10511070  RH  087%=      5-min Rain = 0
KGO1 111511Z 36027G34KT M05/M07 A3037 RMK A01 T10511070  RH  086%=      5-min Rain = 0
KGO1 111512Z 00026G34KT M05/M07 A3037 RMK A01 T10511071  RH  086%=      5-min Rain = 0
KGO1 111513Z 00029G34KT M05/M07 A3037 RMK A01 T10511071  RH  086%=      5-min Rain = 0
KGO1 111514Z 01027G33KT M05/M07 A3038 RMK A01 T10511071  RH  086%=      5-min Rain = 0
KGO1 111515Z 01027G34KT M05/M07 A3037 RMK A01 T10511071  RH  086%=      5-min Rain = 0
KGO1 111516Z 00031G40KT M05/M07 A3037 RMK A01 T10511070  RH  086%=      5-min Rain = 0
KGO1 111517Z 00030G38KT M05/M07 A3038 RMK A01 T10511070  RH  086%=      5-min Rain = 0
KGO1 111518Z 00025G31KT M05/M07 A3038 RMK A01 T10511070  RH  086%=      5-min Rain = 0
KGO1 111519Z 00029G35KT M05/M07 A3038 RMK A01 T10501070  RH  086%=      5-min Rain = 0
KGO1 111520Z 36033G42KT M05/M07 A3038 RMK A01 T10501071  RH  085%=      5-min Rain = 0
KGO1 111521Z 00036KT M05/M07 A3038 RMK A01 T10501072  RH  085%=      5-min Rain = 0
KGO1 111522Z 01033G41KT M05/M07 A3038 RMK A01 T10511072  RH  085%=      5-min Rain = 0
KGO1 111523Z 01027G33KT M05/M07 A3038 RMK A01 T10511072  RH  086%=      5-min Rain = 0
KGO1 111524Z 36027G34KT M05/M07 A3038 RMK A01 T10511071  RH  086%=      5-min Rain = 0
KGO1 111525Z 01027KT M05/M07 A3038 RMK A01 T10511070  RH  086%=      5-min Rain = 0
KGO1 111526Z 36031G40KT M05/M07 A3038 RMK A01 T10511070  RH  087%=      5-min Rain = 0
KGO1 111527Z 36031G42KT M05/M07 A3038 RMK A01 T10511070  RH  087%=      5-min Rain = 0
KGO1 111528Z 36035G43KT M05/M07 A3038 RMK A01 T10521071  RH  086%=      5-min Rain = 0
KGO1 111529Z 01032G40KT M05/M07 A3038 RMK A01 T10521072  RH  086%=      5-min Rain = 0
KGO1 111530Z 35026G35KT M05/M07 A3038 RMK A01 T10511072  RH  085%=      5-min Rain = 0
KGO1 111531Z 36033KT M05/M07 A3038 RMK A01 T10511072  RH  085%=      5-min Rain = 0
KGO1 111532Z 00031G37KT M05/M07 A3038 RMK A01 T10511073  RH  085%=      5-min Rain = 0
KGO1 111533Z 36034KT M05/M07 A3038 RMK A01 T10511073  RH  084%=      5-min Rain = 0
KGO1 111534Z 36032G40KT M05/M08 A3038 RMK A01 T10511075  RH  083%=      5-min Rain = 0
KGO1 111535Z 00031G39KT M05/M08 A3038 RMK A01 T10511076  RH  083%=      5-min Rain = 0
KGO1 111536Z 00033G39KT M05/M08 A3038 RMK A01 T10511076  RH  082%=      5-min Rain = 0
KGO1 111537Z 36029G36KT M05/M08 A3038 RMK A01 T10511077  RH  082%=      5-min Rain = 0
KGO1 111538Z 00030G40KT M05/M08 A3038 RMK A01 T10511077  RH  082%=      5-min Rain = 0
KGO1 111539Z 00031G40KT M05/M08 A3038 RMK A01 T10511077  RH  082%=      5-min Rain = 0
KGO1 111540Z 36032G39KT M05/M08 A3039 RMK A01 T10501077  RH  081%=      5-min Rain = 0
KGO1 111541Z 36029G34KT M05/M08 A3039 RMK A01 T10501077  RH  081%=      5-min Rain = 0
KGO1 111542Z 36032G41KT M05/M08 A3039 RMK A01 T10501077  RH  081%=      5-min Rain = 0
KGO1 111543Z 00028G35KT M05/M08 A3039 RMK A01 T10501077  RH  082%=      5-min Rain = 0
KGO1 111544Z 00024G29KT M05/M08 A3039 RMK A01 T10511076  RH  082%=      5-min Rain = 0
KGO1 111545Z 36022G28KT M05/M08 A3039 RMK A01 T10511075  RH  083%=      5-min Rain = 0
KGO1 111546Z 36026G31KT M05/M08 A304 RMK A01 T10511075  RH  083%=      5-min Rain = 0
KGO1 111547Z 35028G33KT M05/M08 A3039 RMK A01 T10521076  RH  083%=      5-min Rain = 0
KGO1 111548Z 35029G36KT M05/M08 A304 RMK A01 T10531076  RH  084%=      5-min Rain = 0
KGO1 111549Z 35028G36KT M05/M08 A304 RMK A01 T10541077  RH  084%=      5-min Rain = 0
KGO1 111550Z 35027G34KT M06/M08 A304 RMK A01 T10551078  RH  084%=      5-min Rain = 0
KGO1 111551Z 36030G38KT M06/M08 A304 RMK A01 T10551078  RH  084%=      5-min Rain = 0
KGO1 111552Z 36026G35KT M06/M08 A3041 RMK A01 T10561080  RH  084%=      5-min Rain = 0
KGO1 111553Z 36029G37KT M06/M08 A3041 RMK A01 T10561079  RH  084%=      5-min Rain = 0
KGO1 111554Z 36028G35KT M06/M08 A304 RMK A01 T10561079  RH  084%=      5-min Rain = 0
KGO1 111555Z 36030G38KT M06/M08 A3041 RMK A01 T10561080  RH  084%=      5-min Rain = 0
KGO1 111556Z 35027G34KT M06/M08 A3041 RMK A01 T10561080  RH  083%=      5-min Rain = 0
KGO1 111557Z 00031G38KT M06/M08 A3041 RMK A01 T10561080  RH  083%=      5-min Rain = 0
KGO1 111558Z 00030G37KT M06/M08 A3041 RMK A01 T10561081  RH  083%=      5-min Rain = 0
KGO1 111559Z 00028KT M06/M08 A3041 RMK A01 T10561082  RH  082%=      5-min Rain = 0
KGO1 111600Z 36029G36KT M06/M08 A3041 RMK A01 T10561083  RH  082%=      5-min Rain = 0
KGO1 111601Z 01029G36KT M06/M08 A3041 RMK A01 T10561084  RH  081%=      5-min Rain = 0
KGO1 111602Z 35029G39KT M06/M09 A3041 RMK A01 T10561085  RH  080%=      5-min Rain = 0
KGO1 111603Z 00027G32KT M06/M09 A3041 RMK A01 T10561086  RH  080%=      5-min Rain = 0
KGO1 111604Z 35029G37KT M06/M09 A3041 RMK A01 T10551086  RH  079%=      5-min Rain = 0
KGO1 111605Z 00034G41KT M06/M09 A3041 RMK A01 T10551087  RH  078%=      5-min Rain = 0
KGO1 111606Z 35031G39KT M06/M09 A3041 RMK A01 T10551089  RH  077%=      5-min Rain = 0
KGO1 111607Z 00027G33KT M06/M09 A3042 RMK A01 T10551089  RH  077%=      5-min Rain = 0
KGO1 111608Z 00032G40KT M06/M09 A3042 RMK A01 T10551090  RH  076%=      5-min Rain = 0
KGO1 111609Z 35032G40KT M06/M09 A3042 RMK A01 T10561092  RH  076%=      5-min Rain = 0
KGO1 111610Z 36027G34KT M06/M09 A3042 RMK A01 T10561092  RH  075%=      5-min Rain = 0
KGO1 111611Z 00029G37KT M06/M09 A3042 RMK A01 T10551092  RH  075%=      5-min Rain = 0
KGO1 111612Z 36031G37KT M06/M09 A3042 RMK A01 T10551092  RH  075%=      5-min Rain = 0
KGO1 111613Z 36030G37KT M05/M09 A3042 RMK A01 T10541093  RH  074%=      5-min Rain = 0
KGO1 111614Z 36027G33KT M05/M09 A3042 RMK A01 T10541092  RH  074%=      5-min Rain = 0
KGO1 111615Z 36033G39KT M05/M09 A3042 RMK A01 T10531092  RH  074%=      5-min Rain = 0
KGO1 111616Z 36031G37KT M05/M09 A3042 RMK A01 T10541093  RH  074%=      5-min Rain = 0
KGO1 111617Z 00030G39KT M05/M09 A3043 RMK A01 T10541094  RH  073%=      5-min Rain = 0
KGO1 111618Z 00035KT M05/M09 A3042 RMK A01 T10531094  RH  073%=      5-min Rain = 0
KGO1 111619Z 00036G42KT M05/M10 A3042 RMK A01 T10541095  RH  073%=      5-min Rain = 0
KGO1 111620Z 00035KT M05/M10 A3042 RMK A01 T10541096  RH  073%=      5-min Rain = 0
KGO1 111621Z 00033G39KT M06/M10 A3042 RMK A01 T10551096  RH  073%=      5-min Rain = 0
KGO1 111622Z 36032G39KT M05/M10 A3042 RMK A01 T10541095  RH  073%=      5-min Rain = 0
KGO1 111623Z 00029G35KT M05/M09 A3042 RMK A01 T10541094  RH  073%=      5-min Rain = 0
KGO1 111624Z 00029G37KT M05/M09 A3042 RMK A01 T10531093  RH  073%=      5-min Rain = 0
KGO1 111625Z 00031G38KT M05/M09 A3042 RMK A01 T10521093  RH  073%=      5-min Rain = 0
KGO1 111626Z 00022G28KT M05/M09 A3042 RMK A01 T10521093  RH  073%=      5-min Rain = 0
KGO1 111627Z 36024G30KT M05/M09 A3042 RMK A01 T10501091  RH  073%=      5-min Rain = 0
KGO1 111628Z 36027G32KT M05/M09 A3042 RMK A01 T10491092  RH  072%=      5-min Rain = 0
KGO1 111629Z 36032G41KT M05/M09 A3042 RMK A01 T10491093  RH  071%=      5-min Rain = 0
KGO1 111630Z 35032G40KT M05/M09 A3042 RMK A01 T10501094  RH  071%=      5-min Rain = 0
KGO1 111631Z 36033G40KT M05/M10 A3042 RMK A01 T10501095  RH  071%=      5-min Rain = 0
KGO1 111632Z 35036G42KT M05/M10 A3042 RMK A01 T10501095  RH  071%=      5-min Rain = 0
KGO1 111633Z 35036G41KT M05/M10 A3042 RMK A01 T10511096  RH  071%=      5-min Rain = 0
KGO1 111634Z 35033G41KT M05/M10 A3042 RMK A01 T10521097  RH  071%=      5-min Rain = 0
KGO1 111635Z 01035G42KT M05/M10 A3042 RMK A01 T10511096  RH  071%=      5-min Rain = 0
KGO1 111636Z 36030G36KT M05/M10 A3042 RMK A01 T10511096  RH  071%=      5-min Rain = 0
KGO1 111637Z 36032G37KT M05/M09 A3042 RMK A01 T10491094  RH  071%=      5-min Rain = 0
KGO1 111638Z 36033G40KT M05/M09 A3042 RMK A01 T10491094  RH  071%=      5-min Rain = 0
KGO1 111639Z 00032G37KT M05/M09 A3042 RMK A01 T10491094  RH  071%=      5-min Rain = 0
KGO1 111640Z 36030G37KT M05/M09 A3042 RMK A01 T10491094  RH  071%=      5-min Rain = 0
KGO1 111641Z 35028G33KT M05/M09 A3042 RMK A01 T10481093  RH  071%=      5-min Rain = 0
KGO1 111642Z 35032G40KT M05/M09 A3042 RMK A01 T10471092  RH  071%=      5-min Rain = 0
KGO1 111643Z 00033G38KT M05/M09 A3043 RMK A01 T10471092  RH  071%=      5-min Rain = 0
KGO1 111644Z 36029G34KT M05/M09 A3043 RMK A01 T10471092  RH  071%=      5-min Rain = 0
KGO1 111645Z 00029KT M05/M09 A3043 RMK A01 T10471091  RH  071%=      5-min Rain = 0
KGO1 111646Z 36028G35KT M05/M09 A3043 RMK A01 T10471091  RH  071%=      5-min Rain = 0
KGO1 111647Z 36025G30KT M05/M09 A3043 RMK A01 T10461090  RH  072%=      5-min Rain = 0
KGO1 111648Z 36025G33KT M05/M09 A3043 RMK A01 T10451088  RH  072%=      5-min Rain = 0
KGO1 111649Z 36031KT M05/M09 A3043 RMK A01 T10461088  RH  072%=      5-min Rain = 0
KGO1 111650Z 00027G33KT M05/M09 A3043 RMK A01 T10481088  RH  074%=      5-min Rain = 0
KGO1 111651Z 00025G35KT M05/M09 A3043 RMK A01 T10491087  RH  075%=      5-min Rain = 0
KGO1 111652Z 35029G37KT M05/M09 A3043 RMK A01 T10491087  RH  075%=      5-min Rain = 0
KGO1 111653Z 36031G39KT M05/M09 A3043 RMK A01 T10491088  RH  074%=      5-min Rain = 0
KGO1 111654Z 36030G37KT M05/M09 A3044 RMK A01 T10511089  RH  074%=      5-min Rain = 0
KGO1 111655Z 35033G41KT M05/M09 A3044 RMK A01 T10521091  RH  074%=      5-min Rain = 0
KGO1 111656Z 35029G36KT M05/M09 A3044 RMK A01 T10531092  RH  074%=      5-min Rain = 0
KGO1 111657Z 35034G41KT M05/M09 A3044 RMK A01 T10531092  RH  074%=      5-min Rain = 0
KGO1 111658Z 35032G37KT M05/M09 A3044 RMK A01 T10541094  RH  073%=      5-min Rain = 0
KGO1 111659Z 35030G36KT M05/M09 A3044 RMK A01 T10541094  RH  073%=      5-min Rain = 0
KGO1 111700Z 35032G41KT M05/M10 A3044 RMK A01 T10531095  RH  073%=      5-min Rain = 0
KGO1 111701Z 35032G39KT M05/M10 A3044 RMK A01 T10531095  RH  072%=      5-min Rain = 0
KGO1 111702Z 35030G36KT M05/M10 A3044 RMK A01 T10531096  RH  072%=      5-min Rain = 0
KGO1 111703Z 36029KT M05/M10 A3045 RMK A01 T10521095  RH  072%=      5-min Rain = 0
KGO1 111704Z 00030G40KT M05/M10 A3045 RMK A01 T10511095  RH  071%=      5-min Rain = 0
KGO1 111705Z 35032G39KT M05/M10 A3045 RMK A01 T10501096  RH  070%=      5-min Rain = 0
KGO1 111706Z 36035G42KT M05/M10 A3045 RMK A01 T10501098  RH  069%=      5-min Rain = 0
KGO1 111707Z 35033G41KT M05/M10 A3045 RMK A01 T10511100  RH  069%=      5-min Rain = 0
KGO1 111708Z 35033G41KT M05/M10 A3045 RMK A01 T10511100  RH  068%=      5-min Rain = 0
KGO1 111709Z 36033G40KT M05/M10 A3045 RMK A01 T10501100  RH  068%=      5-min Rain = 0
KGO1 111710Z 00030G36KT M05/M10 A3045 RMK A01 T10491100  RH  067%=      5-min Rain = 0
KGO1 111711Z 35029G35KT M05/M10 A3045 RMK A01 T10481100  RH  067%=      5-min Rain = 0
KGO1 111712Z 36029G35KT M05/M10 A3045 RMK A01 T10471100  RH  066%=      5-min Rain = 0
KGO1 111713Z 36026G36KT M05/M10 A3046 RMK A01 T10461099  RH  066%=      5-min Rain = 0
KGO1 111714Z 00031KT M04/M10 A3046 RMK A01 T10441099  RH  066%=      5-min Rain = 0
KGO1 111715Z 36033G39KT M05/M10 A3046 RMK A01 T10451101  RH  065%=      5-min Rain = 0
KGO1 111716Z 00032G37KT M05/M10 A3046 RMK A01 T10471102  RH  065%=      5-min Rain = 0
KGO1 111717Z 00029KT M05/M10 A3046 RMK A01 T10471101  RH  066%=      5-min Rain = 0
KGO1 111718Z 35030G37KT M05/M10 A3045 RMK A01 T10461100  RH  066%=      5-min Rain = 0
KGO1 111719Z 35031KT M05/M10 A3045 RMK A01 T10461099  RH  066%=      5-min Rain = 0
KGO1 111720Z 36027G33KT M05/M10 A3046 RMK A01 T10461098  RH  067%=      5-min Rain = 0
KGO1 111721Z 35026G31KT M05/M10 A3045 RMK A01 T10451097  RH  067%=      5-min Rain = 0
KGO1 111722Z 35029KT M05/M10 A3045 RMK A01 T10451096  RH  067%=      5-min Rain = 0
KGO1 111723Z 35027KT M05/M10 A3045 RMK A01 T10461097  RH  067%=      5-min Rain = 0
KGO1 111724Z 35028G33KT M05/M10 A3045 RMK A01 T10461097  RH  067%=      5-min Rain = 0
KGO1 111725Z 36029G34KT M05/M10 A3045 RMK A01 T10461097  RH  068%=      5-min Rain = 0
KGO1 111726Z 00026G32KT M05/M10 A3046 RMK A01 T10471097  RH  068%=      5-min Rain = 0
KGO1 111727Z 35028G34KT M05/M10 A3046 RMK A01 T10471097  RH  068%=      5-min Rain = 0
KGO1 111728Z 36032G37KT M05/M10 A3046 RMK A01 T10471097  RH  068%=      5-min Rain = 0
KGO1 111729Z 00030G36KT M05/M10 A3046 RMK A01 T10471098  RH  068%=      5-min Rain = 0
KGO1 111730Z 00034G39KT M05/M10 A3046 RMK A01 T10481099  RH  067%=      5-min Rain = 0
KGO1 111731Z 36030G38KT M05/M10 A3046 RMK A01 T10481099  RH  067%=      5-min Rain = 0
KGO1 111732Z 36030G36KT M05/M10 A3046 RMK A01 T10481100  RH  067%=      5-min Rain = 0
KGO1 111733Z 36026G34KT M05/M10 A3045 RMK A01 T10481100  RH  067%=      5-min Rain = 0
KGO1 111734Z 00027G34KT M05/M10 A3046 RMK A01 T10461098  RH  067%=      5-min Rain = 0
KGO1 111735Z 00033G40KT M05/M10 A3046 RMK A01 T10451099  RH  066%=      5-min Rain = 0
KGO1 111736Z 36031G36KT M05/M10 A3046 RMK A01 T10471101  RH  066%=      5-min Rain = 0
KGO1 111737Z 00032G38KT M05/M10 A3045 RMK A01 T10481101  RH  066%=      5-min Rain = 0
KGO1 111738Z 00030G38KT M05/M10 A3046 RMK A01 T10481101  RH  067%=      5-min Rain = 0
KGO1 111739Z 01032KT M05/M10 A3046 RMK A01 T10491101  RH  067%=      5-min Rain = 0
KGO1 111740Z 01033KT M05/M10 A3046 RMK A01 T10491101  RH  067%=      5-min Rain = 0
KGO1 111741Z 36029G37KT M05/M10 A3046 RMK A01 T10501102  RH  067%=      5-min Rain = 0
KGO1 111742Z 01030KT M05/M10 A3046 RMK A01 T10501101  RH  067%=      5-min Rain = 0
KGO1 111743Z 00027G33KT M05/M10 A3046 RMK A01 T10491100  RH  067%=      5-min Rain = 0
KGO1 111744Z 01027G37KT M05/M10 A3046 RMK A01 T10471099  RH  067%=      5-min Rain = 0
KGO1 111745Z 01027G33KT M05/M10 A3046 RMK A01 T10471101  RH  066%=      5-min Rain = 0
KGO1 111746Z 01025G30KT M05/M10 A3046 RMK A01 T10471102  RH  065%=      5-min Rain = 0
KGO1 111747Z 35026KT M05/M10 A3046 RMK A01 T10471102  RH  065%=      5-min Rain = 0
KGO1 111748Z 35029G35KT M05/M10 A3046 RMK A01 T10471102  RH  065%=      5-min Rain = 0
KGO1 111749Z 00028KT M05/M10 A3046 RMK A01 T10481103  RH  065%=      5-min Rain = 0
KGO1 111750Z 35026G33KT M05/M10 A3046 RMK A01 T10481103  RH  066%=      5-min Rain = 0
KGO1 111751Z 36027G32KT M05/M10 A3046 RMK A01 T10461101  RH  065%=      5-min Rain = 0
KGO1 111752Z 35024G30KT M05/M10 A3046 RMK A01 T10451102  RH  064%=      5-min Rain = 0
KGO1 111753Z 36025KT M05/M10 A3046 RMK A01 T10451102  RH  064%=      5-min Rain = 0
KGO1 111754Z 35026G35KT M05/M10 A3046 RMK A01 T10451102  RH  065%=      5-min Rain = 0
KGO1 111755Z 35030G36KT M05/M10 A3046 RMK A01 T10461102  RH  065%=      5-min Rain = 0
KGO1 111756Z 36024KT M05/M10 A3046 RMK A01 T10481103  RH  065%=      5-min Rain = 0
KGO1 111757Z 34026G36KT M05/M10 A3046 RMK A01 T10481102  RH  066%=      5-min Rain = 0
KGO1 111758Z 36033KT M05/M10 A3046 RMK A01 T10471103  RH  065%=      5-min Rain = 0
KGO1 111759Z 36028G34KT M05/M10 A3046 RMK A01 T10471104  RH  065%=      5-min Rain = 0
KGO1 111800Z 00026G35KT M05/M10 A3046 RMK A01 T10471104  RH  064%=      5-min Rain = 0
KGO1 111801Z 00028G33KT M05/M10 A3046 RMK A01 T10471104  RH  064%=      5-min Rain = 0
KGO1 111802Z 01026G37KT M05/M11 A3047 RMK A01 T10471105  RH  064%=      5-min Rain = 0
KGO1 111803Z 00028G35KT M05/M11 A3047 RMK A01 T10471105  RH  064%=      5-min Rain = 0
KGO1 111804Z 01025G31KT M05/M11 A3047 RMK A01 T10471105  RH  064%=      5-min Rain = 0
KGO1 111805Z 36025G31KT M05/M11 A3047 RMK A01 T10471105  RH  064%=      5-min Rain = 0
KGO1 111806Z 00026G32KT M05/M10 A3047 RMK A01 T10451104  RH  063%=      5-min Rain = 0
KGO1 111807Z 00027G33KT M05/M11 A3047 RMK A01 T10451105  RH  063%=      5-min Rain = 0
KGO1 111808Z 00027G35KT M05/M11 A3047 RMK A01 T10451106  RH  062%=      5-min Rain = 0
KGO1 111809Z 36029G35KT M05/M11 A3048 RMK A01 T10461107  RH  062%=      5-min Rain = 0
KGO1 111810Z 36026G33KT M05/M11 A3048 RMK A01 T10451108  RH  062%=      5-min Rain = 0
KGO1 111811Z 00027G33KT M05/M11 A3048 RMK A01 T10461108  RH  062%=      5-min Rain = 0
KGO1 111812Z 00027G35KT M05/M11 A3048 RMK A01 T10461109  RH  062%=      5-min Rain = 0
KGO1 111813Z 01025G32KT M05/M11 A3048 RMK A01 T10461109  RH  061%=      5-min Rain = 0
KGO1 111814Z 00030G37KT M05/M11 A3048 RMK A01 T10461109  RH  061%=      5-min Rain = 0
KGO1 111815Z 36026G31KT M05/M11 A3048 RMK A01 T10461110  RH  061%=      5-min Rain = 0
KGO1 111816Z 35030KT M05/M11 A3048 RMK A01 T10451109  RH  061%=      5-min Rain = 0
KGO1 111817Z 01032G37KT M05/M11 A3048 RMK A01 T10451109  RH  061%=      5-min Rain = 0
KGO1 111818Z 00030G35KT M05/M11 A3048 RMK A01 T10461110  RH  061%=      5-min Rain = 0
KGO1 111819Z 00032KT M05/M11 A3048 RMK A01 T10461111  RH  061%=      5-min Rain = 0
KGO1 111820Z 01029KT M05/M11 A3048 RMK A01 T10471111  RH  061%=      5-min Rain = 0
KGO1 111821Z 01026G33KT M05/M11 A3048 RMK A01 T10461110  RH  061%=      5-min Rain = 0
KGO1 111822Z 01026G33KT M05/M11 A3048 RMK A01 T10451109  RH  061%=      5-min Rain = 0
KGO1 111823Z 00026G31KT M04/M11 A3048 RMK A01 T10441109  RH  061%=      5-min Rain = 0
KGO1 111824Z 01028G36KT M04/M11 A3048 RMK A01 T10441110  RH  060%=      5-min Rain = 0
KGO1 111825Z 01027G33KT M04/M11 A3048 RMK A01 T10441109  RH  060%=      5-min Rain = 0
KGO1 111826Z 01026G32KT M04/M11 A3048 RMK A01 T10441109  RH  060%=      5-min Rain = 0
KGO1 111827Z 00021G28KT M04/M11 A3048 RMK A01 T10431108  RH  060%=      5-min Rain = 0
KGO1 111828Z 36022KT M04/M11 A3048 RMK A01 T10411106  RH  060%=      5-min Rain = 0
KGO1 111829Z 36025KT M04/M11 A3048 RMK A01 T10391106  RH  060%=      5-min Rain = 0
KGO1 111830Z 00026G31KT M04/M11 A3047 RMK A01 T10391106  RH  060%=      5-min Rain = 0
KGO1 111831Z 36024G29KT M04/M11 A3047 RMK A01 T10401106  RH  060%=      5-min Rain = 0
KGO1 111832Z 36025G31KT M04/M11 A3047 RMK A01 T10391106  RH  060%=      5-min Rain = 0
KGO1 111833Z 36025G30KT M04/M11 A3048 RMK A01 T10381105  RH  060%=      5-min Rain = 0
KGO1 111834Z 00025G31KT M04/M11 A3047 RMK A01 T10381106  RH  060%=      5-min Rain = 0
KGO1 111835Z 00026KT M04/M11 A3047 RMK A01 T10391106  RH  060%=      5-min Rain = 0
KGO1 111836Z 36023G30KT M04/M11 A3047 RMK A01 T10391105  RH  060%=      5-min Rain = 0
KGO1 111837Z 01027G37KT M04/M10 A3048 RMK A01 T10371104  RH  060%=      5-min Rain = 0
KGO1 111838Z 36026G34KT M04/M11 A3047 RMK A01 T10371105  RH  059%=      5-min Rain = 0
KGO1 111839Z 36027G33KT M04/M11 A3047 RMK A01 T10381107  RH  059%=      5-min Rain = 0
KGO1 111840Z 35023G29KT M04/M11 A3047 RMK A01 T10391107  RH  059%=      5-min Rain = 0
KGO1 111841Z 35029G36KT M04/M11 A3047 RMK A01 T10381106  RH  059%=      5-min Rain = 0
KGO1 111842Z 36021G30KT M04/M11 A3047 RMK A01 T10371105  RH  059%=      5-min Rain = 0
KGO1 111843Z 36027G33KT M04/M10 A3047 RMK A01 T10361104  RH  059%=      5-min Rain = 0
KGO1 111844Z 36027KT M04/M11 A3047 RMK A01 T10371106  RH  059%=      5-min Rain = 0
KGO1 111845Z 36027G32KT M04/M11 A3047 RMK A01 T10371106  RH  059%=      5-min Rain = 0
KGO1 111846Z 35026KT M04/M11 A3047 RMK A01 T10371106  RH  059%=      5-min Rain = 0
KGO1 111847Z 35025KT M04/M11 A3047 RMK A01 T10371106  RH  059%=      5-min Rain = 0
KGO1 111848Z 00025KT M04/M11 A3047 RMK A01 T10371107  RH  059%=      5-min Rain = 0
KGO1 111849Z 36026G32KT M04/M11 A3047 RMK A01 T10361106  RH  058%=      5-min Rain = 0
KGO1 111850Z 00026G32KT M04/M11 A3047 RMK A01 T10351108  RH  057%=      5-min Rain = 0
KGO1 111851Z 36024G34KT M04/M11 A3047 RMK A01 T10351108  RH  057%=      5-min Rain = 0
KGO1 111852Z 00028G37KT M03/M11 A3047 RMK A01 T10341108  RH  057%=      5-min Rain = 0
KGO1 111853Z 36029G34KT M04/M11 A3048 RMK A01 T10351109  RH  056%=      5-min Rain = 0
KGO1 111854Z 00026G32KT M04/M11 A3047 RMK A01 T10361110  RH  056%=      5-min Rain = 0
KGO1 111855Z 35024G30KT M04/M11 A3047 RMK A01 T10361110  RH  057%=      5-min Rain = 0
KGO1 111856Z 00025G37KT M04/M11 A3048 RMK A01 T10351109  RH  057%=      5-min Rain = 0
KGO1 111857Z 00030G35KT M04/M11 A3048 RMK A01 T10351110  RH  056%=      5-min Rain = 0
KGO1 111858Z 01031G36KT M04/M11 A3048 RMK A01 T10361112  RH  056%=      5-min Rain = 0
KGO1 111859Z 01022G27KT M04/M11 A3048 RMK A01 T10371112  RH  056%=      5-min Rain = 0
KGO1 111900Z 01019G26KT M04/M11 A3048 RMK A01 T10361110  RH  057%=      5-min Rain = 0
KGO1 111901Z 00020G26KT M04/M11 A3048 RMK A01 T10351108  RH  057%=      5-min Rain = 0
KGO1 111902Z 01021G26KT M03/M11 A3048 RMK A01 T10341108  RH  056%=      5-min Rain = 0
KGO1 111903Z 00018G23KT M03/M11 A3048 RMK A01 T10331108  RH  056%=      5-min Rain = 0
KGO1 111904Z 36023KT M03/M11 A3048 RMK A01 T10321107  RH  056%=      5-min Rain = 0
KGO1 111905Z 00021G27KT M03/M11 A3048 RMK A01 T10321108  RH  056%=      5-min Rain = 0
KGO1 111906Z 36022G28KT M03/M11 A3048 RMK A01 T10331108  RH  056%=      5-min Rain = 0
KGO1 111907Z 36021G27KT M03/M11 A3048 RMK A01 T10331108  RH  057%=      5-min Rain = 0
KGO1 111908Z 00026G32KT M03/M11 A3048 RMK A01 T10331108  RH  056%=      5-min Rain = 0
KGO1 111909Z 00024G31KT M04/M11 A3048 RMK A01 T10351110  RH  056%=      5-min Rain = 0
KGO1 111910Z 00022G28KT M04/M11 A3048 RMK A01 T10361110  RH  057%=      5-min Rain = 0
KGO1 111911Z 00026KT M04/M11 A3048 RMK A01 T10361109  RH  057%=      5-min Rain = 0
KGO1 111912Z 36021G28KT M04/M11 A3048 RMK A01 T10361109  RH  057%=      5-min Rain = 0
KGO1 111913Z 36022G28KT M04/M11 A3048 RMK A01 T10361108  RH  057%=      5-min Rain = 0
KGO1 111914Z 36025KT M04/M11 A3048 RMK A01 T10351107  RH  057%=      5-min Rain = 0
KGO1 111915Z 36025G34KT M04/M11 A3048 RMK A01 T10351108  RH  057%=      5-min Rain = 0
KGO1 111916Z 00025G32KT M04/M11 A3048 RMK A01 T10361109  RH  057%=      5-min Rain = 0
KGO1 111917Z 01024KT M04/M11 A3048 RMK A01 T10371109  RH  057%=      5-min Rain = 0
KGO1 111918Z 00024KT M04/M11 A3048 RMK A01 T10371108  RH  058%=      5-min Rain = 0
KGO1 111919Z 00023G29KT M04/M11 A3048 RMK A01 T10371107  RH  058%=      5-min Rain = 0
KGO1 111920Z 00024G30KT M04/M11 A3048 RMK A01 T10361107  RH  058%=      5-min Rain = 0
KGO1 111921Z 00024G32KT M04/M11 A3048 RMK A01 T10361107  RH  058%=      5-min Rain = 0
KGO1 111922Z 01023G29KT M04/M11 A3048 RMK A01 T10361107  RH  058%=      5-min Rain = 0
KGO1 111923Z 00023G29KT M04/M11 A3048 RMK A01 T10361106  RH  058%=      5-min Rain = 0
KGO1 111924Z 00021G26KT M04/M11 A3048 RMK A01 T10351106  RH  058%=      5-min Rain = 0
KGO1 111925Z 35023KT M03/M10 A3048 RMK A01 T10341104  RH  058%=      5-min Rain = 0
KGO1 111926Z 36023G29KT M03/M10 A3047 RMK A01 T10331104  RH  058%=      5-min Rain = 0
KGO1 111927Z 36022G30KT M03/M10 A3048 RMK A01 T10321104  RH  058%=      5-min Rain = 0
KGO1 111928Z 35025G31KT M03/M10 A3047 RMK A01 T10301103  RH  057%=      5-min Rain = 0
KGO1 111929Z 01022G27KT M03/M10 A3048 RMK A01 T10301104  RH  057%=      5-min Rain = 0
KGO1 111930Z 00023G28KT M03/M10 A3047 RMK A01 T10301104  RH  057%=      5-min Rain = 0
KGO1 111931Z 01025KT M03/M11 A3048 RMK A01 T10301105  RH  056%=      5-min Rain = 0
KGO1 111932Z 01025G31KT M03/M11 A3047 RMK A01 T10301105  RH  056%=      5-min Rain = 0
KGO1 111933Z 00026G32KT M03/M11 A3048 RMK A01 T10311106  RH  056%=      5-min Rain = 0
KGO1 111934Z 01021G27KT M03/M11 A3048 RMK A01 T10321107  RH  056%=      5-min Rain = 0
KGO1 111935Z 01022KT M03/M11 A3048 RMK A01 T10321106  RH  056%=      5-min Rain = 0
KGO1 111936Z 01023G28KT M03/M11 A3048 RMK A01 T10311106  RH  056%=      5-min Rain = 0
KGO1 111937Z 00025G31KT M03/M11 A3048 RMK A01 T10301106  RH  056%=      5-min Rain = 0
KGO1 111938Z 36022G30KT M03/M11 A3048 RMK A01 T10301108  RH  055%=      5-min Rain = 0
KGO1 111939Z 00022KT M03/M11 A3048 RMK A01 T10311108  RH  055%=      5-min Rain = 0
KGO1 111940Z 00023KT M03/M11 A3048 RMK A01 T10311109  RH  055%=      5-min Rain = 0
KGO1 111941Z 00025KT M03/M11 A3048 RMK A01 T10301108  RH  055%=      5-min Rain = 0
KGO1 111942Z 01022G27KT M03/M11 A3048 RMK A01 T10301108  RH  055%=      5-min Rain = 0
KGO1 111943Z 01024G29KT M03/M11 A3048 RMK A01 T10291107  RH  055%=      5-min Rain = 0
KGO1 111944Z 01020G26KT M03/M11 A3047 RMK A01 T10281107  RH  055%=      5-min Rain = 0
KGO1 111945Z 01025KT M03/M11 A3048 RMK A01 T10281107  RH  055%=      5-min Rain = 0
KGO1 111946Z 01024KT M03/M11 A3048 RMK A01 T10281108  RH  054%=      5-min Rain = 0
KGO1 111947Z 00026G31KT M03/M11 A3048 RMK A01 T10281108  RH  054%=      5-min Rain = 0
KGO1 111948Z 00023G28KT M03/M11 A3048 RMK A01 T10281107  RH  054%=      5-min Rain = 0
KGO1 111949Z 01021G28KT M03/M11 A3048 RMK A01 T10261106  RH  054%=      5-min Rain = 0
KGO1 111950Z 01021G26KT M03/M11 A3048 RMK A01 T10251105  RH  054%=      5-min Rain = 0
KGO1 111951Z 00024KT M02/M11 A3047 RMK A01 T10241105  RH  054%=      5-min Rain = 0
KGO1 111952Z 00023G31KT M02/M11 A3047 RMK A01 T10231105  RH  053%=      5-min Rain = 0
KGO1 111953Z 00022KT M02/M11 A3047 RMK A01 T10231105  RH  053%=      5-min Rain = 0
KGO1 111954Z 35021KT M02/M11 A3047 RMK A01 T10231105  RH  054%=      5-min Rain = 0
KGO1 111955Z 36020G26KT M02/M11 A3047 RMK A01 T10231105  RH  054%=      5-min Rain = 0
KGO1 111956Z 36019KT M02/M10 A3047 RMK A01 T10221103  RH  054%=      5-min Rain = 0
KGO1 111957Z 00020KT M02/M10 A3047 RMK A01 T10201102  RH  053%=      5-min Rain = 0
KGO1 111958Z 00022G28KT M02/M10 A3047 RMK A01 T10181102  RH  053%=      5-min Rain = 0
KGO1 111959Z 00024G31KT M02/M10 A3047 RMK A01 T10171103  RH  052%=      5-min Rain = 0
KGO1 112000Z 36026G31KT M02/M11 A3047 RMK A01 T10171105  RH  051%=      5-min Rain = 0
KGO1 112001Z 00027KT M02/M11 A3047 RMK A01 T10191107  RH  051%=      5-min Rain = 0
KGO1 112002Z 01025G32KT M02/M11 A3047 RMK A01 T10201107  RH  051%=      5-min Rain = 0
KGO1 112003Z 00021G28KT M02/M11 A3048 RMK A01 T10181105  RH  051%=      5-min Rain = 0
KGO1 112004Z 01023KT M02/M11 A3048 RMK A01 T10171105  RH  051%=      5-min Rain = 0
KGO1 112005Z 01024G30KT M02/M11 A3048 RMK A01 T10171106  RH  050%=      5-min Rain = 0
KGO1 112006Z 01020G28KT M02/M11 A3048 RMK A01 T10171107  RH  050%=      5-min Rain = 0
KGO1 112007Z 01022KT M02/M11 A3048 RMK A01 T10171106  RH  051%=      5-min Rain = 0
KGO1 112008Z 01025G30KT M02/M11 A3048 RMK A01 T10161106  RH  050%=      5-min Rain = 0
KGO1 112009Z 01024G31KT M02/M11 A3048 RMK A01 T10161107  RH  050%=      5-min Rain = 0
KGO1 112010Z 00024KT M02/M11 A3048 RMK A01 T10181108  RH  050%=      5-min Rain = 0
KGO1 112011Z 01025KT M02/M11 A3048 RMK A01 T10181108  RH  050%=      5-min Rain = 0
KGO1 112012Z 00025G30KT M02/M11 A3048 RMK A01 T10181107  RH  051%=      5-min Rain = 0
KGO1 112013Z 01021G29KT M02/M11 A3048 RMK A01 T10171106  RH  051%=      5-min Rain = 0
KGO1 112014Z 01025G31KT M01/M10 A3048 RMK A01 T10141104  RH  050%=      5-min Rain = 0
KGO1 112015Z 01024KT M02/M11 A3048 RMK A01 T10151106  RH  050%=      5-min Rain = 0
KGO1 112016Z 01021KT M02/M11 A3048 RMK A01 T10151106  RH  050%=      5-min Rain = 0
KGO1 112017Z 36022G27KT M01/M10 A3048 RMK A01 T10131104  RH  050%=      5-min Rain = 0
KGO1 112018Z 36023G28KT M01/M10 A3048 RMK A01 T10091100  RH  050%=      5-min Rain = 0
KGO1 112019Z 00022G29KT M01/M10 A3048 RMK A01 T10081103  RH  049%=      5-min Rain = 0
KGO1 112020Z 02027KT M01/M10 A3048 RMK A01 T10081104  RH  049%=      5-min Rain = 0
KGO1 112021Z 02025G33KT M01/M11 A3048 RMK A01 T10091105  RH  048%=      5-min Rain = 0
KGO1 112022Z 01026G31KT M01/M10 A3048 RMK A01 T10091103  RH  049%=      5-min Rain = 0
KGO1 112023Z 00025G32KT M01/M11 A3048 RMK A01 T10091105  RH  048%=      5-min Rain = 0
KGO1 112024Z 36024KT M01/M11 A3048 RMK A01 T10101105  RH  048%=      5-min Rain = 0
KGO1 112025Z 00027G33KT M01/M10 A3047 RMK A01 T10091104  RH  049%=      5-min Rain = 0
KGO1 112026Z 00025KT M01/M11 A3047 RMK A01 T10111106  RH  048%=      5-min Rain = 0
KGO1 112027Z 00021G26KT M01/M11 A3047 RMK A01 T10131108  RH  049%=      5-min Rain = 0
KGO1 112028Z 00023KT M01/M11 A3048 RMK A01 T10141106  RH  049%=      5-min Rain = 0
KGO1 112029Z 01020G25KT M01/M11 A3047 RMK A01 T10131105  RH  049%=      5-min Rain = 0
KGO1 112030Z 01022G29KT M01/M10 A3047 RMK A01 T10101103  RH  049%=      5-min Rain = 0
KGO1 112031Z 01020KT M01/M10 A3047 RMK A01 T10101104  RH  049%=      5-min Rain = 0
KGO1 112032Z 00021G26KT M01/M10 A3047 RMK A01 T10091103  RH  049%=      5-min Rain = 0
KGO1 112033Z 01023G29KT M01/M10 A3047 RMK A01 T10071103  RH  048%=      5-min Rain = 0
KGO1 112034Z 02022KT M01/M11 A3047 RMK A01 T10091106  RH  048%=      5-min Rain = 0
KGO1 112035Z 01021G27KT M01/M11 A3047 RMK A01 T10101105  RH  048%=      5-min Rain = 0
KGO1 112036Z 00025G31KT M01/M10 A3047 RMK A01 T10081103  RH  049%=      5-min Rain = 0
KGO1 112037Z 01026KT M01/M11 A3047 RMK A01 T10081105  RH  048%=      5-min Rain = 0
KGO1 112038Z 36024G31KT M01/M11 A3047 RMK A01 T10091105  RH  048%=      5-min Rain = 0
KGO1 112039Z 36025G31KT M01/M10 A3047 RMK A01 T10081104  RH  048%=      5-min Rain = 0
KGO1 112040Z 00024G29KT M01/M10 A3047 RMK A01 T10081104  RH  048%=      5-min Rain = 0
KGO1 112041Z 00023G31KT M01/M10 A3047 RMK A01 T10081104  RH  048%=      5-min Rain = 0
KGO1 112042Z 01025G31KT M01/M10 A3047 RMK A01 T10081104  RH  048%=      5-min Rain = 0
KGO1 112043Z 00020G26KT M01/M10 A3047 RMK A01 T10061102  RH  048%=      5-min Rain = 0
KGO1 112044Z 01021G26KT M00/M10 A3047 RMK A01 T10021100  RH  048%=      5-min Rain = 0
KGO1 112045Z 01019G25KT 00/10 A3047 RMK A01 T00-00-99  RH  047%=      5-min Rain = 0
KGO1 112046Z 00019KT 00/M10 A3047 RMK A01 T00011099  RH  047%=      5-min Rain = 0
KGO1 112047Z 01023KT 00/M10 A3047 RMK A01 T00021099  RH  046%=      5-min Rain = 0
KGO1 112048Z 01023KT 00/M10 A3047 RMK A01 T00011102  RH  046%=      5-min Rain = 0
KGO1 112049Z 35023G30KT 00/10 A3047 RMK A01 T00-00-101  RH  047%=      5-min Rain = 0
KGO1 112050Z 00025G31KT 00/10 A3047 RMK A01 T00000-102  RH  046%=      5-min Rain = 0
KGO1 112051Z 00026G31KT M00/M10 A3047 RMK A01 T10021103  RH  046%=      5-min Rain = 0
KGO1 112052Z 01026G32KT M01/M11 A3047 RMK A01 T10051105  RH  047%=      5-min Rain = 0
KGO1 112053Z 00024G29KT M01/M10 A3047 RMK A01 T10061104  RH  047%=      5-min Rain = 0
KGO1 112054Z 01024G30KT M01/M10 A3047 RMK A01 T10061103  RH  048%=      5-min Rain = 0
KGO1 112055Z 35024KT M01/M10 A3047 RMK A01 T10071104  RH  048%=      5-min Rain = 0
KGO1 112056Z 01023KT M01/M10 A3047 RMK A01 T10061103  RH  048%=      5-min Rain = 0
KGO1 112057Z 01018G24KT M01/M10 A3047 RMK A01 T10051103  RH  048%=      5-min Rain = 0
KGO1 112058Z 01023G28KT M01/M10 A3047 RMK A01 T10051102  RH  048%=      5-min Rain = 0
KGO1 112059Z 01019KT M01/M10 A3047 RMK A01 T10051103  RH  048%=      5-min Rain = 0
KGO1 112100Z 01024G29KT M01/M10 A3047 RMK A01 T10051102  RH  048%=      5-min Rain = 0
KGO1 112101Z 01024KT M01/M10 A3047 RMK A01 T10051103  RH  047%=      5-min Rain = 0
KGO1 112102Z 01022G27KT M01/M10 A3047 RMK A01 T10061104  RH  048%=      5-min Rain = 0
KGO1 112103Z 01025KT M01/M11 A3047 RMK A01 T10071105  RH  048%=      5-min Rain = 0
KGO1 112104Z 01026KT M01/M11 A3047 RMK A01 T10091106  RH  048%=      5-min Rain = 0
KGO1 112105Z 01027G32KT M01/M11 A3047 RMK A01 T10111106  RH  048%=      5-min Rain = 0
KGO1 112106Z 02028G33KT M01/M11 A3048 RMK A01 T10121107  RH  049%=      5-min Rain = 0
KGO1 112107Z 01021G27KT M01/M11 A3048 RMK A01 T10131106  RH  049%=      5-min Rain = 0
KGO1 112108Z 01022G27KT M01/M11 A3048 RMK A01 T10121105  RH  049%=      5-min Rain = 0
KGO1 112109Z 00020G27KT M01/M11 A3048 RMK A01 T10121105  RH  049%=      5-min Rain = 0
KGO1 112110Z 01027G32KT M01/M11 A3048 RMK A01 T10121105  RH  049%=      5-min Rain = 0
KGO1 112111Z 01026KT M01/M11 A3048 RMK A01 T10121105  RH  049%=      5-min Rain = 0
KGO1 112112Z 00026G33KT M01/M11 A3048 RMK A01 T10111105  RH  049%=      5-min Rain = 0
KGO1 112113Z 00024KT M01/M11 A3048 RMK A01 T10101105  RH  049%=      5-min Rain = 0
KGO1 112114Z 01024G29KT M01/M11 A3048 RMK A01 T10101105  RH  048%=      5-min Rain = 0
KGO1 112115Z 00026G33KT M01/M11 A3048 RMK A01 T10101105  RH  048%=      5-min Rain = 0
KGO1 112116Z 00024G29KT M01/M11 A3048 RMK A01 T10101105  RH  049%=      5-min Rain = 0
KGO1 112117Z 36026G32KT M01/M10 A3048 RMK A01 T10091104  RH  048%=      5-min Rain = 0
KGO1 112118Z 00024G29KT M01/M11 A3048 RMK A01 T10101106  RH  048%=      5-min Rain = 0
KGO1 112119Z 01023KT M01/M11 A3048 RMK A01 T10111106  RH  048%=      5-min Rain = 0
KGO1 112120Z 35020G25KT M01/M11 A3048 RMK A01 T10111105  RH  049%=      5-min Rain = 0
KGO1 112121Z 36026KT M01/M11 A3048 RMK A01 T10111106  RH  049%=      5-min Rain = 0
KGO1 112122Z 36020KT M01/M11 A3048 RMK A01 T10101105  RH  048%=      5-min Rain = 0
KGO1 112123Z 00019G25KT M01/M10 A3048 RMK A01 T10091104  RH  048%=      5-min Rain = 0
KGO1 112124Z 00021G26KT M01/M10 A3048 RMK A01 T10061102  RH  048%=      5-min Rain = 0
KGO1 112125Z 35022KT M01/M10 A3048 RMK A01 T10071104  RH  048%=      5-min Rain = 0
KGO1 112126Z 36023KT M01/M11 A3048 RMK A01 T10081105  RH  048%=      5-min Rain = 0
KGO1 112127Z 36024G31KT M01/M11 A3048 RMK A01 T10071105  RH  048%=      5-min Rain = 0
KGO1 112128Z 00022KT M01/M10 A3048 RMK A01 T10071104  RH  048%=      5-min Rain = 0
KGO1 112129Z 36021KT M01/M10 A3048 RMK A01 T10051104  RH  047%=      5-min Rain = 0
KGO1 112130Z 00017KT M00/M10 A3048 RMK A01 T10041103  RH  047%=      5-min Rain = 0
KGO1 112131Z 01017G23KT M00/M10 A3048 RMK A01 T10031102  RH  047%=      5-min Rain = 0
KGO1 112132Z 01020KT M00/M10 A3048 RMK A01 T10041104  RH  047%=      5-min Rain = 0
KGO1 112133Z 02019G26KT M01/M11 A3048 RMK A01 T10051105  RH  047%=      5-min Rain = 0
KGO1 112134Z 01023KT M01/M10 A3048 RMK A01 T10061104  RH  048%=      5-min Rain = 0
KGO1 112135Z 01022KT M01/M11 A3048 RMK A01 T10061105  RH  047%=      5-min Rain = 0
KGO1 112136Z 01020KT M01/M11 A3048 RMK A01 T10071105  RH  048%=      5-min Rain = 0
KGO1 112137Z 01024KT M01/M10 A3048 RMK A01 T10071103  RH  048%=      5-min Rain = 0
KGO1 112138Z 01020G26KT M01/M10 A3048 RMK A01 T10061103  RH  048%=      5-min Rain = 0
KGO1 112139Z 01022G27KT M01/M10 A3048 RMK A01 T10051102  RH  048%=      5-min Rain = 0
KGO1 112140Z 01022G28KT M00/M10 A3048 RMK A01 T10041102  RH  048%=      5-min Rain = 0
KGO1 112141Z 01024G30KT M00/M10 A3048 RMK A01 T10021100  RH  048%=      5-min Rain = 0
KGO1 112142Z 00024KT M00/M10 A3049 RMK A01 T10021102  RH  047%=      5-min Rain = 0
KGO1 112143Z 01022G28KT M00/M10 A3049 RMK A01 T10031102  RH  047%=      5-min Rain = 0
KGO1 112144Z 01022G28KT M00/M10 A3049 RMK A01 T10041102  RH  047%=      5-min Rain = 0
KGO1 112145Z 00021G26KT M00/M10 A3049 RMK A01 T10041101  RH  048%=      5-min Rain = 0
KGO1 112146Z 00021G27KT M00/M10 A3048 RMK A01 T10041101  RH  048%=      5-min Rain = 0
KGO1 112147Z 00025KT M00/M10 A3048 RMK A01 T10041102  RH  048%=      5-min Rain = 0
KGO1 112148Z 36022G30KT M01/M10 A3048 RMK A01 T10071104  RH  048%=      5-min Rain = 0
KGO1 112149Z 35024KT M01/M10 A3049 RMK A01 T10081103  RH  049%=      5-min Rain = 0
KGO1 112150Z 35021KT M01/M10 A3049 RMK A01 T10071102  RH  049%=      5-min Rain = 0
KGO1 112151Z 35018G23KT M01/M10 A3049 RMK A01 T10071102  RH  049%=      5-min Rain = 0
KGO1 112152Z 00021G26KT M01/M10 A3049 RMK A01 T10081103  RH  049%=      5-min Rain = 0
KGO1 112153Z 36024KT M01/M10 A3049 RMK A01 T10081103  RH  049%=      5-min Rain = 0
KGO1 112154Z 35025KT M01/M11 A3049 RMK A01 T10091105  RH  048%=      5-min Rain = 0
KGO1 112155Z 36019G26KT M01/M11 A3049 RMK A01 T10111106  RH  049%=      5-min Rain = 0
KGO1 112156Z 00020KT M01/M11 A3049 RMK A01 T10111105  RH  049%=      5-min Rain = 0
KGO1 112157Z 36021G29KT M01/M11 A3049 RMK A01 T10111105  RH  049%=      5-min Rain = 0
KGO1 112158Z 36023KT M01/M11 A3049 RMK A01 T10121107  RH  049%=      5-min Rain = 0
KGO1 112159Z 00024KT M01/M11 A305 RMK A01 T10141108  RH  049%=      5-min Rain = 0
KGO1 112200Z 01024KT M02/M11 A305 RMK A01 T10151108  RH  049%=      5-min Rain = 0
KGO1 112201Z 00022G28KT M02/M11 A305 RMK A01 T10151109  RH  049%=      5-min Rain = 0
KGO1 112202Z 36017G25KT M02/M11 A305 RMK A01 T10151109  RH  049%=      5-min Rain = 0
KGO1 112203Z 36020G26KT M02/M11 A305 RMK A01 T10161110  RH  048%=      5-min Rain = 0
KGO1 112204Z 00023G28KT M02/M11 A305 RMK A01 T10161112  RH  048%=      5-min Rain = 0
KGO1 112205Z 36024G30KT M02/M11 A305 RMK A01 T10161112  RH  048%=      5-min Rain = 0
KGO1 112206Z 36024G29KT M02/M11 A305 RMK A01 T10161114  RH  047%=      5-min Rain = 0
KGO1 112207Z 36022G27KT M02/M11 A305 RMK A01 T10161114  RH  047%=      5-min Rain = 0
KGO1 112208Z 00023G28KT M02/M12 A305 RMK A01 T10161115  RH  047%=      5-min Rain = 0
KGO1 112209Z 36021G28KT M01/M12 A305 RMK A01 T10141115  RH  046%=      5-min Rain = 0
KGO1 112210Z 36025G31KT M01/M12 A305 RMK A01 T10131116  RH  045%=      5-min Rain = 0
KGO1 112211Z 36019G24KT M01/M12 A305 RMK A01 T10131117  RH  045%=      5-min Rain = 0
KGO1 112212Z 00020KT M01/M11 A305 RMK A01 T10101114  RH  045%=      5-min Rain = 0
KGO1 112213Z 36019KT M01/M11 A305 RMK A01 T10091114  RH  045%=      5-min Rain = 0
KGO1 112214Z 01023KT M01/M12 A305 RMK A01 T10091116  RH  044%=      5-min Rain = 0
KGO1 112215Z 01022G27KT M01/M12 A305 RMK A01 T10121119  RH  044%=      5-min Rain = 0
KGO1 112216Z 01019KT M02/M12 A305 RMK A01 T10151121  RH  044%=      5-min Rain = 0
KGO1 112217Z 00021G28KT M02/M12 A305 RMK A01 T10171120  RH  045%=      5-min Rain = 0
KGO1 112218Z 00023G29KT M02/M12 A305 RMK A01 T10181121  RH  045%=      5-min Rain = 0
KGO1 112219Z 36026KT M02/M12 A305 RMK A01 T10181122  RH  045%=      5-min Rain = 0
KGO1 112220Z 36025KT M02/M13 A305 RMK A01 T10191125  RH  044%=      5-min Rain = 0
KGO1 112221Z 00020G27KT M02/M13 A305 RMK A01 T10191126  RH  044%=      5-min Rain = 0
KGO1 112222Z 00023G28KT M02/M13 A3051 RMK A01 T10201127  RH  043%=      5-min Rain = 0
KGO1 112223Z 36021G26KT M02/M13 A3051 RMK A01 T10211129  RH  043%=      5-min Rain = 0
KGO1 112224Z 36019G24KT M02/M13 A3051 RMK A01 T10221129  RH  044%=      5-min Rain = 0
KGO1 112225Z 00020G25KT M02/M13 A3051 RMK A01 T10221128  RH  044%=      5-min Rain = 0
KGO1 112226Z 01020KT M02/M13 A3051 RMK A01 T10211127  RH  044%=      5-min Rain = 0
KGO1 112227Z 02023G28KT M02/M13 A3051 RMK A01 T10221128  RH  044%=      5-min Rain = 0
KGO1 112228Z 02020KT M02/M13 A3051 RMK A01 T10231129  RH  044%=      5-min Rain = 0
KGO1 112229Z 01019G25KT M02/M13 A3051 RMK A01 T10231129  RH  044%=      5-min Rain = 0
KGO1 112230Z 01021G26KT M02/M13 A3051 RMK A01 T10231128  RH  044%=      5-min Rain = 0
KGO1 112231Z 01021KT M02/M13 A3051 RMK A01 T10231129  RH  044%=      5-min Rain = 0
KGO1 112232Z 02021KT M02/M13 A3051 RMK A01 T10241129  RH  044%=      5-min Rain = 0
KGO1 112233Z 01021KT M02/M13 A3051 RMK A01 T10241129  RH  044%=      5-min Rain = 0
KGO1 112234Z 01018KT M02/M13 A3051 RMK A01 T10241129  RH  044%=      5-min Rain = 0
KGO1 112235Z 00018KT M02/M13 A3051 RMK A01 T10231127  RH  045%=      5-min Rain = 0
KGO1 112236Z 01021KT M02/M13 A3051 RMK A01 T10221127  RH  044%=      5-min Rain = 0
KGO1 112237Z 01021KT M02/M13 A3051 RMK A01 T10221128  RH  044%=      5-min Rain = 0
KGO1 112238Z 01019KT M02/M13 A305 RMK A01 T10221128  RH  044%=      5-min Rain = 0
KGO1 112239Z 01021KT M02/M13 A305 RMK A01 T10221128  RH  044%=      5-min Rain = 0
KGO1 112240Z 01020G25KT M02/M13 A305 RMK A01 T10231128  RH  044%=      5-min Rain = 0
KGO1 112241Z 00018G25KT M02/M13 A305 RMK A01 T10231128  RH  045%=      5-min Rain = 0
KGO1 112242Z 36021KT M02/M13 A305 RMK A01 T10231127  RH  045%=      5-min Rain = 0
KGO1 112243Z 01020KT M02/M13 A305 RMK A01 T10241127  RH  045%=      5-min Rain = 0
KGO1 112244Z 01016KT M02/M13 A3051 RMK A01 T10241125  RH  046%=      5-min Rain = 0
KGO1 112245Z 01017G23KT M02/M13 A3051 RMK A01 T10241125  RH  046%=      5-min Rain = 0
KGO1 112246Z 01019G25KT M02/M12 A3051 RMK A01 T10241124  RH  046%=      5-min Rain = 0
KGO1 112247Z 01019G25KT M02/M12 A3051 RMK A01 T10231124  RH  046%=      5-min Rain = 0
KGO1 112248Z 01016G22KT M02/M12 A3051 RMK A01 T10221123  RH  046%=      5-min Rain = 0
KGO1 112249Z 01018KT M02/M12 A3051 RMK A01 T10211122  RH  046%=      5-min Rain = 0
KGO1 112250Z 01020KT M02/M12 A3051 RMK A01 T10221121  RH  046%=      5-min Rain = 0
KGO1 112251Z 01020KT M02/M12 A3051 RMK A01 T10231122  RH  047%=      5-min Rain = 0
KGO1 112252Z 01020KT M02/M12 A3051 RMK A01 T10241122  RH  047%=      5-min Rain = 0
KGO1 112253Z 01020KT M02/M12 A3051 RMK A01 T10231121  RH  047%=      5-min Rain = 0
KGO1 112254Z 01018KT M02/M12 A3052 RMK A01 T10231121  RH  047%=      5-min Rain = 0
KGO1 112255Z 00017G23KT M02/M12 A3052 RMK A01 T10241121  RH  047%=      5-min Rain = 0
KGO1 112256Z 36016G22KT M02/M12 A3052 RMK A01 T10231121  RH  047%=      5-min Rain = 0
KGO1 112257Z 36015G20KT M02/M12 A3052 RMK A01 T10231121  RH  047%=      5-min Rain = 0
KGO1 112258Z 00018G24KT M02/M12 A3052 RMK A01 T10231121  RH  047%=      5-min Rain = 0
KGO1 112259Z 01020KT M02/M12 A3052 RMK A01 T10231122  RH  046%=      5-min Rain = 0
KGO1 112300Z 36016KT M02/M12 A3052 RMK A01 T10241124  RH  046%=      5-min Rain = 0
KGO1 112301Z 36017KT M03/M12 A3052 RMK A01 T10251124  RH  046%=      5-min Rain = 0
KGO1 112302Z 35020G25KT M03/M13 A3052 RMK A01 T10251126  RH  046%=      5-min Rain = 0
KGO1 112303Z 35016G21KT M03/M13 A3052 RMK A01 T10261127  RH  046%=      5-min Rain = 0
KGO1 112304Z 35019KT M03/M13 A3052 RMK A01 T10271127  RH  046%=      5-min Rain = 0
KGO1 112305Z 35018KT M03/M13 A3052 RMK A01 T10271128  RH  046%=      5-min Rain = 0
KGO1 112306Z 35018KT M03/M13 A3052 RMK A01 T10271128  RH  046%=      5-min Rain = 0
KGO1 112307Z 35021KT M03/M13 A3053 RMK A01 T10271128  RH  046%=      5-min Rain = 0
KGO1 112308Z 36018KT M03/M13 A3053 RMK A01 T10271127  RH  046%=      5-min Rain = 0
KGO1 112309Z 36016G26KT M03/M13 A3053 RMK A01 T10281127  RH  046%=      5-min Rain = 0
KGO1 112310Z 00024KT M03/M13 A3053 RMK A01 T10281128  RH  046%=      5-min Rain = 0
KGO1 112311Z 36019KT M03/M13 A3053 RMK A01 T10291129  RH  046%=      5-min Rain = 0
KGO1 112312Z 00018G23KT M03/M13 A3053 RMK A01 T10291129  RH  046%=      5-min Rain = 0
KGO1 112313Z 01018KT M03/M13 A3053 RMK A01 T10291130  RH  046%=      5-min Rain = 0
KGO1 112314Z 00017KT M03/M13 A3053 RMK A01 T10301131  RH  046%=      5-min Rain = 0
KGO1 112315Z 36019KT M03/M13 A3053 RMK A01 T10291131  RH  046%=      5-min Rain = 0
KGO1 112316Z 36017G22KT M03/M13 A3053 RMK A01 T10301131  RH  045%=      5-min Rain = 0
KGO1 112317Z 36019G24KT M03/M13 A3053 RMK A01 T10301133  RH  045%=      5-min Rain = 0
KGO1 112318Z 00020KT M03/M13 A3053 RMK A01 T10311134  RH  045%=      5-min Rain = 0
KGO1 112319Z 00018KT M03/M13 A3053 RMK A01 T10311134  RH  045%=      5-min Rain = 0
KGO1 112320Z 00018KT M03/M13 A3053 RMK A01 T10311134  RH  045%=      5-min Rain = 0
KGO1 112321Z 36019KT M03/M13 A3053 RMK A01 T10311134  RH  045%=      5-min Rain = 0
KGO1 112322Z 00020G26KT M03/M14 A3053 RMK A01 T10311135  RH  045%=      5-min Rain = 0
KGO1 112323Z 01019KT M03/M14 A3054 RMK A01 T10321135  RH  045%=      5-min Rain = 0
KGO1 112324Z 01019KT M03/M14 A3054 RMK A01 T10321135  RH  045%=      5-min Rain = 0
KGO1 112325Z 00019G25KT M03/M14 A3054 RMK A01 T10311135  RH  045%=      5-min Rain = 0
KGO1 112326Z 00019KT M03/M14 A3054 RMK A01 T10311135  RH  045%=      5-min Rain = 0
KGO1 112327Z 00019G24KT M03/M14 A3054 RMK A01 T10321136  RH  044%=      5-min Rain = 0
KGO1 112328Z 00018KT M03/M14 A3054 RMK A01 T10321136  RH  044%=      5-min Rain = 0
KGO1 112329Z 00016KT M03/M14 A3054 RMK A01 T10321136  RH  045%=      5-min Rain = 0
KGO1 112330Z 00015G23KT M03/M14 A3054 RMK A01 T10321136  RH  045%=      5-min Rain = 0
KGO1 112331Z 00015KT M03/M14 A3054 RMK A01 T10331136  RH  045%=      5-min Rain = 0
KGO1 112332Z 00015G20KT M03/M14 A3054 RMK A01 T10341136  RH  045%=      5-min Rain = 0
KGO1 112333Z 00018KT M03/M14 A3054 RMK A01 T10341136  RH  045%=      5-min Rain = 0
KGO1 112334Z 00019G24KT M03/M14 A3054 RMK A01 T10341137  RH  045%=      5-min Rain = 0
KGO1 112335Z 00019G24KT M03/M14 A3054 RMK A01 T10341139  RH  044%=      5-min Rain = 0
KGO1 112336Z 01020KT M03/M14 A3054 RMK A01 T10341139  RH  044%=      5-min Rain = 0
KGO1 112337Z 00020KT M03/M14 A3054 RMK A01 T10341140  RH  044%=      5-min Rain = 0
KGO1 112338Z 00019KT M03/M14 A3055 RMK A01 T10341140  RH  044%=      5-min Rain = 0
KGO1 112339Z 36017KT M03/M14 A3055 RMK A01 T10341140  RH  044%=      5-min Rain = 0
KGO1 112340Z 36017G22KT M04/M14 A3055 RMK A01 T10351140  RH  044%=      5-min Rain = 0
KGO1 112341Z 35018KT M04/M14 A3055 RMK A01 T10351140  RH  044%=      5-min Rain = 0
KGO1 112342Z 00016KT M04/M14 A3055 RMK A01 T10351140  RH  044%=      5-min Rain = 0
KGO1 112343Z 36017G22KT M04/M14 A3055 RMK A01 T10351139  RH  044%=      5-min Rain = 0
KGO1 112344Z 36017KT M04/M14 A3055 RMK A01 T10361140  RH  044%=      5-min Rain = 0
KGO1 112345Z 36020KT M04/M14 A3055 RMK A01 T10361140  RH  044%=      5-min Rain = 0
KGO1 112346Z 00017KT M04/M14 A3055 RMK A01 T10361140  RH  044%=      5-min Rain = 0
KGO1 112347Z 00015KT M04/M14 A3055 RMK A01 T10361140  RH  044%=      5-min Rain = 0
KGO1 112348Z 36016KT M04/M14 A3055 RMK A01 T10371140  RH  045%=      5-min Rain = 0
KGO1 112349Z 36015KT M04/M14 A3055 RMK A01 T10371140  RH  045%=      5-min Rain = 0
KGO1 112350Z 36014KT M04/M14 A3055 RMK A01 T10381140  RH  045%=      5-min Rain = 0
KGO1 112351Z 00015G20KT M04/M14 A3055 RMK A01 T10381140  RH  045%=      5-min Rain = 0
KGO1 112352Z 01017KT M04/M14 A3055 RMK A01 T10381140  RH  045%=      5-min Rain = 0
KGO1 112353Z 36015KT M04/M14 A3055 RMK A01 T10381140  RH  045%=      5-min Rain = 0
KGO1 112354Z 00014KT M04/M14 A3055 RMK A01 T10391140  RH  045%=      5-min Rain = 0
KGO1 112355Z 00016KT M04/M14 A3055 RMK A01 T10391140  RH  045%=      5-min Rain = 0
KGO1 112356Z 00018KT M04/M14 A3056 RMK A01 T10391141  RH  045%=      5-min Rain = 0
KGO1 112357Z 00014KT M04/M14 A3056 RMK A01 T10391141  RH  045%=      5-min Rain = 0
KGO1 112358Z 00015KT M04/M14 A3056 RMK A01 T10391141  RH  045%=      5-min Rain = 0
KGO1 112359Z 00017G22KT M04/M14 A3056 RMK A01 T10391141  RH  045%=      5-min Rain = 0
KGO1 120000Z 36017KT M04/M14 A3056 RMK A01 T10391141  RH  045%=      5-min Rain = 0
KGO1 120001Z 36017G22KT M04/M14 A3056 RMK A01 T10391141  RH  045%=      5-min Rain = 0
KGO1 120002Z 36013KT M04/M14 A3056 RMK A01 T10401142  RH  045%=      5-min Rain = 0
KGO1 120003Z 00014G19KT M04/M14 A3056 RMK A01 T10401141  RH  045%=      5-min Rain = 0
KGO1 120004Z 36015G20KT M04/M14 A3056 RMK A01 T10401141  RH  045%=      5-min Rain = 0
KGO1 120005Z 36014G19KT M04/M14 A3056 RMK A01 T10401142  RH  045%=      5-min Rain = 0
KGO1 120006Z 00014KT M04/M14 A3056 RMK A01 T10401141  RH  045%=      5-min Rain = 0
KGO1 120007Z 36012KT M04/M14 A3056 RMK A01 T10411141  RH  046%=      5-min Rain = 0
KGO1 120008Z 36012KT M04/M14 A3057 RMK A01 T10411141  RH  046%=      5-min Rain = 0
KGO1 120009Z 00013KT M04/M14 A3057 RMK A01 T10421141  RH  046%=      5-min Rain = 0
KGO1 120010Z 36013KT M04/M14 A3057 RMK A01 T10421141  RH  046%=      5-min Rain = 0
KGO1 120011Z 00012KT M04/M14 A3057 RMK A01 T10421140  RH  046%=      5-min Rain = 0
KGO1 120012Z 36012KT M04/M14 A3057 RMK A01 T10421140  RH  046%=      5-min Rain = 0
KGO1 120013Z 00015KT M04/M14 A3057 RMK A01 T10421140  RH  047%=      5-min Rain = 0
KGO1 120014Z 36014KT M04/M14 A3057 RMK A01 T10421140  RH  047%=      5-min Rain = 0
KGO1 120015Z 36015KT M04/M14 A3057 RMK A01 T10421140  RH  046%=      5-min Rain = 0
KGO1 120016Z 36014KT M04/M14 A3057 RMK A01 T10411139  RH  046%=      5-min Rain = 0
KGO1 120017Z 36012KT M04/M14 A3057 RMK A01 T10411139  RH  047%=      5-min Rain = 0
KGO1 120018Z 36013KT M04/M14 A3057 RMK A01 T10421139  RH  047%=      5-min Rain = 0
KGO1 120019Z 00014KT M04/M14 A3057 RMK A01 T10421139  RH  047%=      5-min Rain = 0
KGO1 120020Z 36012KT M04/M14 A3057 RMK A01 T10421139  RH  047%=      5-min Rain = 0
KGO1 120021Z 36013KT M04/M14 A3057 RMK A01 T10421139  RH  047%=      5-min Rain = 0
KGO1 120022Z 36014KT M04/M14 A3057 RMK A01 T10421139  RH  047%=      5-min Rain = 0
KGO1 120023Z 36013KT M04/M14 A3057 RMK A01 T10421140  RH  047%=      5-min Rain = 0
KGO1 120024Z 36013G19KT M04/M14 A3057 RMK A01 T10421139  RH  047%=      5-min Rain = 0
KGO1 120025Z 00015KT M04/M14 A3057 RMK A01 T10421139  RH  047%=      5-min Rain = 0
KGO1 120026Z 00012KT M04/M14 A3057 RMK A01 T10421140  RH  047%=      5-min Rain = 0
KGO1 120027Z 00012KT M04/M14 A3057 RMK A01 T10431140  RH  047%=      5-min Rain = 0
KGO1 120028Z 36014KT M04/M14 A3057 RMK A01 T10431139  RH  047%=      5-min Rain = 0
KGO1 120029Z 36015KT M04/M14 A3057 RMK A01 T10431139  RH  047%=      5-min Rain = 0
KGO1 120030Z 36014KT M04/M14 A3057 RMK A01 T10431140  RH  047%=      5-min Rain = 0
KGO1 120031Z 00015KT M04/M14 A3057 RMK A01 T10431140  RH  047%=      5-min Rain = 0
KGO1 120032Z 00014KT M04/M14 A3057 RMK A01 T10431140  RH  047%=      5-min Rain = 0
KGO1 120033Z 36011KT M04/M14 A3057 RMK A01 T10431140  RH  047%=      5-min Rain = 0
KGO1 120034Z 36013KT M04/M14 A3057 RMK A01 T10441140  RH  047%=      5-min Rain = 0
KGO1 120035Z 36014KT M04/M14 A3057 RMK A01 T10441140  RH  047%=      5-min Rain = 0
KGO1 120036Z 36012KT M04/M14 A3057 RMK A01 T10441140  RH  047%=      5-min Rain = 0
KGO1 120037Z 36012KT M04/M14 A3057 RMK A01 T10441140  RH  047%=      5-min Rain = 0
KGO1 120038Z 36014G19KT M04/M14 A3057 RMK A01 T10441140  RH  047%=      5-min Rain = 0
KGO1 120039Z 00015G20KT M04/M14 A3057 RMK A01 T10441141  RH  047%=      5-min Rain = 0
KGO1 120040Z 00015KT M04/M14 A3057 RMK A01 T10431142  RH  046%=      5-min Rain = 0
KGO1 120041Z 00013KT M04/M14 A3057 RMK A01 T10431141  RH  046%=      5-min Rain = 0
KGO1 120042Z 00016KT M04/M14 A3057 RMK A01 T10431141  RH  046%=      5-min Rain = 0
KGO1 120043Z 00013KT M04/M14 A3057 RMK A01 T10431142  RH  046%=      5-min Rain = 0
KGO1 120044Z 00014KT M04/M14 A3057 RMK A01 T10431141  RH  046%=      5-min Rain = 0
KGO1 120045Z 00014KT M04/M14 A3057 RMK A01 T10431141  RH  046%=      5-min Rain = 0
KGO1 120046Z 36013KT M04/M14 A3057 RMK A01 T10431141  RH  047%=      5-min Rain = 0
KGO1 120047Z 00012KT M04/M14 A3057 RMK A01 T10441141  RH  047%=      5-min Rain = 0
KGO1 120048Z 36012KT M04/M14 A3057 RMK A01 T10441141  RH  047%=      5-min Rain = 0
KGO1 120049Z 36014KT M05/M14 A3057 RMK A01 T10451141  RH  047%=      5-min Rain = 0
KGO1 120050Z 35011KT M05/M14 A3057 RMK A01 T10451141  RH  047%=      5-min Rain = 0
KGO1 120051Z 36013KT M05/M14 A3057 RMK A01 T10451140  RH  047%=      5-min Rain = 0
KGO1 120052Z 35013KT M05/M14 A3057 RMK A01 T10451140  RH  047%=      5-min Rain = 0
KGO1 120053Z 35014KT M05/M14 A3057 RMK A01 T10461140  RH  048%=      5-min Rain = 0
KGO1 120054Z 36016KT M05/M14 A3057 RMK A01 T10461140  RH  048%=      5-min Rain = 0
KGO1 120055Z 00015KT M05/M14 A3057 RMK A01 T10451141  RH  047%=      5-min Rain = 0
KGO1 120056Z 36012KT M05/M14 A3058 RMK A01 T10451141  RH  047%=      5-min Rain = 0
KGO1 120057Z 36014KT M05/M14 A3058 RMK A01 T10451141  RH  047%=      5-min Rain = 0
KGO1 120058Z 00015KT M05/M14 A3058 RMK A01 T10451141  RH  047%=      5-min Rain = 0
KGO1 120059Z 36015KT M05/M14 A3057 RMK A01 T10451141  RH  047%=      5-min Rain = 0
KGO1 120100Z 00014G19KT M05/M14 A3057 RMK A01 T10451141  RH  047%=      5-min Rain = 0
KGO1 120101Z 00015G20KT M05/M14 A3057 RMK A01 T10451141  RH  047%=      5-min Rain = 0
KGO1 120102Z 36016KT M05/M14 A3057 RMK A01 T10451142  RH  047%=      5-min Rain = 0
KGO1 120103Z 00018KT M05/M14 A3057 RMK A01 T10451143  RH  046%=      5-min Rain = 0
KGO1 120104Z 36015KT M05/M14 A3057 RMK A01 T10451143  RH  046%=      5-min Rain = 0
KGO1 120105Z 00015KT M05/M14 A3057 RMK A01 T10451143  RH  046%=      5-min Rain = 0
KGO1 120106Z 00013KT M05/M14 A3057 RMK A01 T10461143  RH  046%=      5-min Rain = 0
KGO1 120107Z 36017KT M05/M14 A3057 RMK A01 T10461143  RH  047%=      5-min Rain = 0
KGO1 120108Z 36016KT M05/M14 A3057 RMK A01 T10461143  RH  046%=      5-min Rain = 0
KGO1 120109Z 36014KT M05/M14 A3057 RMK A01 T10461144  RH  046%=      5-min Rain = 0
KGO1 120110Z 36014KT M05/M14 A3058 RMK A01 T10461143  RH  046%=      5-min Rain = 0
KGO1 120111Z 36015KT M05/M14 A3058 RMK A01 T10461143  RH  047%=      5-min Rain = 0
KGO1 120112Z 01013KT M05/M14 A3058 RMK A01 T10461143  RH  047%=      5-min Rain = 0
KGO1 120113Z 00013KT M05/M14 A3058 RMK A01 T10461144  RH  047%=      5-min Rain = 0
KGO1 120114Z 00012KT M05/M14 A3058 RMK A01 T10471144  RH  047%=      5-min Rain = 0
KGO1 120115Z 00011KT M05/M14 A3058 RMK A01 T10471144  RH  047%=      5-min Rain = 0
KGO1 120116Z 00013KT M05/M14 A3058 RMK A01 T10481144  RH  047%=      5-min Rain = 0
KGO1 120117Z 00015KT M05/M14 A3058 RMK A01 T10481143  RH  047%=      5-min Rain = 0
KGO1 120118Z 01011KT M05/M14 A3058 RMK A01 T10481144  RH  047%=      5-min Rain = 0
KGO1 120119Z 00014KT M05/M14 A3058 RMK A01 T10481144  RH  047%=      5-min Rain = 0
KGO1 120120Z 36012KT M05/M14 A3058 RMK A01 T10481144  RH  047%=      5-min Rain = 0
KGO1 120121Z 01014KT M05/M14 A3058 RMK A01 T10481144  RH  047%=      5-min Rain = 0
KGO1 120122Z 00015KT M05/M15 A3059 RMK A01 T10481145  RH  047%=      5-min Rain = 0
KGO1 120123Z 36013KT M05/M15 A3059 RMK A01 T10481145  RH  047%=      5-min Rain = 0
KGO1 120124Z 00014KT M05/M14 A3059 RMK A01 T10481144  RH  047%=      5-min Rain = 0
KGO1 120125Z 00012KT M05/M14 A3059 RMK A01 T10481144  RH  047%=      5-min Rain = 0
KGO1 120126Z 00013G18KT M05/M15 A3059 RMK A01 T10481145  RH  047%=      5-min Rain = 0
KGO1 120127Z 00015KT M05/M15 A3059 RMK A01 T10491145  RH  047%=      5-min Rain = 0
KGO1 120128Z 36013G18KT M05/M14 A3059 RMK A01 T10481144  RH  047%=      5-min Rain = 0
KGO1 120129Z 36015KT M05/M14 A3059 RMK A01 T10481144  RH  047%=      5-min Rain = 0
KGO1 120130Z 36011KT M05/M14 A3059 RMK A01 T10481144  RH  047%=      5-min Rain = 0
KGO1 120131Z 00012KT M05/M14 A3059 RMK A01 T10491144  RH  047%=      5-min Rain = 0
KGO1 120132Z 00011KT M05/M14 A3059 RMK A01 T10501144  RH  048%=      5-min Rain = 0
KGO1 120133Z 36013KT M05/M14 A3059 RMK A01 T10501144  RH  048%=      5-min Rain = 0
KGO1 120134Z 01011KT M05/M14 A3059 RMK A01 T10501144  RH  048%=      5-min Rain = 0
KGO1 120135Z 00012KT M05/M14 A3059 RMK A01 T10501144  RH  048%=      5-min Rain = 0
KGO1 120136Z 35010KT M05/M14 A3059 RMK A01 T10501143  RH  048%=      5-min Rain = 0
KGO1 120137Z 35012KT M05/M14 A3059 RMK A01 T10501143  RH  048%=      5-min Rain = 0
KGO1 120138Z 00014KT M05/M14 A306 RMK A01 T10511143  RH  048%=      5-min Rain = 0
KGO1 120139Z 00014KT M05/M14 A306 RMK A01 T10501144  RH  048%=      5-min Rain = 0
KGO1 120140Z 00013KT M05/M14 A306 RMK A01 T10501144  RH  048%=      5-min Rain = 0
KGO1 120141Z 00012KT M05/M14 A306 RMK A01 T10501144  RH  048%=      5-min Rain = 0
KGO1 120142Z 00011KT M05/M14 A306 RMK A01 T10501144  RH  048%=      5-min Rain = 0
KGO1 120143Z 00009KT M05/M14 A306 RMK A01 T10511144  RH  048%=      5-min Rain = 0
KGO1 120144Z 00010KT M05/M14 A306 RMK A01 T10511144  RH  048%=      5-min Rain = 0
KGO1 120145Z 00013KT M05/M14 A306 RMK A01 T10511143  RH  048%=      5-min Rain = 0
KGO1 120146Z 00012KT M05/M14 A306 RMK A01 T10521144  RH  048%=      5-min Rain = 0
KGO1 120147Z 01012KT M05/M14 A306 RMK A01 T10511144  RH  048%=      5-min Rain = 0
KGO1 120148Z 36013KT M05/M14 A306 RMK A01 T10511144  RH  048%=      5-min Rain = 0
KGO1 120149Z 36013KT M05/M14 A306 RMK A01 T10511144  RH  048%=      5-min Rain = 0
KGO1 120150Z 01013KT M05/M15 A306 RMK A01 T10511145  RH  048%=      5-min Rain = 0
KGO1 120151Z 00013KT M05/M15 A306 RMK A01 T10511145  RH  048%=      5-min Rain = 0
KGO1 120152Z 00012KT M05/M14 A306 RMK A01 T10511144  RH  048%=      5-min Rain = 0
KGO1 120153Z 01013KT M05/M14 A306 RMK A01 T10511144  RH  048%=      5-min Rain = 0
KGO1 120154Z 01012KT M05/M15 A306 RMK A01 T10511145  RH  048%=      5-min Rain = 0
KGO1 120155Z 01010KT M05/M15 A306 RMK A01 T10521145  RH  048%=      5-min Rain = 0
KGO1 120156Z 00011KT M05/M14 A306 RMK A01 T10521144  RH  048%=      5-min Rain = 0
KGO1 120157Z 01014KT M05/M14 A306 RMK A01 T10531144  RH  049%=      5-min Rain = 0
KGO1 120158Z 00012KT M05/M15 A306 RMK A01 T10531145  RH  049%=      5-min Rain = 0
KGO1 120159Z 01012KT M05/M14 A306 RMK A01 T10531144  RH  049%=      5-min Rain = 0
KGO1 120200Z 01012KT M05/M14 A306 RMK A01 T10531144  RH  049%=      5-min Rain = 0
KGO1 120201Z 00014KT M05/M14 A306 RMK A01 T10531144  RH  049%=      5-min Rain = 0
KGO1 120202Z 00013KT M05/M14 A3061 RMK A01 T10531144  RH  049%=      5-min Rain = 0
KGO1 120203Z 00013KT M05/M14 A3061 RMK A01 T10531144  RH  049%=      5-min Rain = 0
KGO1 120204Z 00011KT M05/M14 A3061 RMK A01 T10531144  RH  049%=      5-min Rain = 0
KGO1 120205Z 00013KT M05/M14 A3061 RMK A01 T10531144  RH  049%=      5-min Rain = 0
KGO1 120206Z 36012KT M05/M14 A3061 RMK A01 T10531144  RH  049%=      5-min Rain = 0
KGO1 120207Z 00011KT M05/M14 A3061 RMK A01 T10541144  RH  049%=      5-min Rain = 0
KGO1 120208Z 00011KT M05/M14 A3061 RMK A01 T10541144  RH  049%=      5-min Rain = 0
KGO1 120209Z 00012KT M05/M14 A3061 RMK A01 T10541144  RH  049%=      5-min Rain = 0
KGO1 120210Z 36012KT M05/M14 A3061 RMK A01 T10541144  RH  049%=      5-min Rain = 0
KGO1 120211Z 00013KT M05/M14 A3061 RMK A01 T10541144  RH  049%=      5-min Rain = 0
KGO1 120212Z 36013KT M05/M14 A3061 RMK A01 T10541143  RH  050%=      5-min Rain = 0
KGO1 120213Z 36012KT M05/M14 A3061 RMK A01 T10541143  RH  050%=      5-min Rain = 0
KGO1 120214Z 36012KT M05/M14 A3061 RMK A01 T10541143  RH  050%=      5-min Rain = 0
KGO1 120215Z 36010KT M06/M14 A3061 RMK A01 T10551143  RH  050%=      5-min Rain = 0
KGO1 120216Z 36012KT M06/M14 A3061 RMK A01 T10561143  RH  050%=      5-min Rain = 0
KGO1 120217Z 36013KT M06/M14 A3061 RMK A01 T10551143  RH  050%=      5-min Rain = 0
KGO1 120218Z 36012KT M06/M14 A3061 RMK A01 T10551143  RH  050%=      5-min Rain = 0
KGO1 120219Z 36011KT M06/M14 A3061 RMK A01 T10551143  RH  050%=      5-min Rain = 0
KGO1 120220Z 35012KT M06/M14 A3061 RMK A01 T10551143  RH  050%=      5-min Rain = 0
KGO1 120221Z 36011KT M06/M14 A3061 RMK A01 T10561143  RH  050%=      5-min Rain = 0
KGO1 120222Z 36013KT M06/M14 A3061 RMK A01 T10561143  RH  050%=      5-min Rain = 0
KGO1 120223Z 36011KT M06/M14 A3061 RMK A01 T10551143  RH  050%=      5-min Rain = 0
KGO1 120224Z 00011KT M06/M14 A3061 RMK A01 T10551143  RH  050%=      5-min Rain = 0
KGO1 120225Z 35011KT M06/M14 A3061 RMK A01 T10561143  RH  050%=      5-min Rain = 0
KGO1 120226Z 00011KT M06/M14 A3061 RMK A01 T10561142  RH  051%=      5-min Rain = 0
KGO1 120227Z 36013KT M06/M14 A3061 RMK A01 T10561142  RH  051%=      5-min Rain = 0
KGO1 120228Z 00011KT M06/M14 A3061 RMK A01 T10561142  RH  051%=      5-min Rain = 0
KGO1 120229Z 36013KT M06/M14 A3061 RMK A01 T10561142  RH  051%=      5-min Rain = 0
KGO1 120230Z 36011KT M06/M14 A3061 RMK A01 T10561142  RH  051%=      5-min Rain = 0
KGO1 120231Z 00011KT M06/M14 A3061 RMK A01 T10571142  RH  051%=      5-min Rain = 0
KGO1 120232Z 36011KT M06/M14 A3061 RMK A01 T10571142  RH  051%=      5-min Rain = 0
KGO1 120233Z 36010KT M06/M14 A3061 RMK A01 T10581142  RH  051%=      5-min Rain = 0
KGO1 120234Z 00011KT M06/M14 A3061 RMK A01 T10571141  RH  052%=      5-min Rain = 0
KGO1 120235Z 35010KT M06/M14 A3061 RMK A01 T10581142  RH  052%=      5-min Rain = 0
KGO1 120236Z 36010KT M06/M14 A3061 RMK A01 T10591142  RH  052%=      5-min Rain = 0
KGO1 120237Z 36010KT M06/M14 A3061 RMK A01 T10591141  RH  052%=      5-min Rain = 0
KGO1 120238Z 36013KT M06/M14 A3061 RMK A01 T10591140  RH  053%=      5-min Rain = 0
KGO1 120239Z 36013KT M06/M14 A3061 RMK A01 T10591140  RH  053%=      5-min Rain = 0
KGO1 120240Z 36011KT M06/M14 A3061 RMK A01 T10591140  RH  052%=      5-min Rain = 0
KGO1 120241Z 36011KT M06/M14 A3061 RMK A01 T10581140  RH  053%=      5-min Rain = 0
KGO1 120242Z 36012KT M06/M14 A3061 RMK A01 T10591140  RH  053%=      5-min Rain = 0
KGO1 120243Z 36011KT M06/M14 A3061 RMK A01 T10591140  RH  053%=      5-min Rain = 0
KGO1 120244Z 36011KT M06/M14 A3061 RMK A01 T10601140  RH  053%=      5-min Rain = 0
KGO1 120245Z 36011KT M06/M14 A3061 RMK A01 T10601140  RH  053%=      5-min Rain = 0
KGO1 120246Z 36011KT M06/M14 A3061 RMK A01 T10601140  RH  053%=      5-min Rain = 0
KGO1 120247Z 35014KT M06/M14 A3061 RMK A01 T10611140  RH  054%=      5-min Rain = 0
KGO1 120248Z 35012KT M06/M14 A3061 RMK A01 T10601140  RH  053%=      5-min Rain = 0
KGO1 120249Z 35011KT M06/M14 A3061 RMK A01 T10601140  RH  053%=      5-min Rain = 0
KGO1 120250Z 00014KT M06/M14 A3061 RMK A01 T10611140  RH  054%=      5-min Rain = 0
KGO1 120251Z 00012KT M06/M14 A3061 RMK A01 T10601140  RH  054%=      5-min Rain = 0
KGO1 120252Z 36012KT M06/M14 A3061 RMK A01 T10601140  RH  053%=      5-min Rain = 0
KGO1 120253Z 36012KT M06/M14 A3061 RMK A01 T10601140  RH  054%=      5-min Rain = 0
KGO1 120254Z 36011KT M06/M14 A3061 RMK A01 T10611140  RH  054%=      5-min Rain = 0
KGO1 120255Z 35012KT M06/M14 A3061 RMK A01 T10611140  RH  054%=      5-min Rain = 0
KGO1 120256Z 36011KT M06/M14 A3061 RMK A01 T10621139  RH  054%=      5-min Rain = 0
KGO1 120257Z 36012KT M06/M14 A3061 RMK A01 T10621139  RH  054%=      5-min Rain = 0
KGO1 120258Z 36011KT M06/M14 A3061 RMK A01 T10621139  RH  054%=      5-min Rain = 0
KGO1 120259Z 36013KT M06/M14 A3061 RMK A01 T10621139  RH  054%=      5-min Rain = 0
KGO1 120300Z 00014KT M06/M14 A3061 RMK A01 T10611139  RH  054%=      5-min Rain = 0
KGO1 120301Z 00014KT M06/M14 A3061 RMK A01 T10621140  RH  054%=      5-min Rain = 0
KGO1 120302Z 36014KT M06/M14 A3061 RMK A01 T10621140  RH  054%=      5-min Rain = 0
KGO1 120303Z 36015KT M06/M14 A3061 RMK A01 T10611139  RH  054%=      5-min Rain = 0
KGO1 120304Z 35012KT M06/M14 A3061 RMK A01 T10611139  RH  054%=      5-min Rain = 0
KGO1 120305Z 00014G19KT M06/M14 A3061 RMK A01 T10621139  RH  054%=      5-min Rain = 0
KGO1 120306Z 00013KT M06/M14 A3061 RMK A01 T10621140  RH  054%=      5-min Rain = 0
KGO1 120307Z 00014KT M06/M14 A3061 RMK A01 T10621140  RH  054%=      5-min Rain = 0
KGO1 120308Z 00012KT M06/M14 A3061 RMK A01 T10611139  RH  054%=      5-min Rain = 0
KGO1 120309Z 00013KT M06/M14 A3061 RMK A01 T10621140  RH  054%=      5-min Rain = 0
KGO1 120310Z 00012KT M06/M14 A3061 RMK A01 T10621140  RH  054%=      5-min Rain = 0
KGO1 120311Z 36013KT M06/M14 A3061 RMK A01 T10621140  RH  054%=      5-min Rain = 0
KGO1 120312Z 35014KT M06/M14 A3061 RMK A01 T10621139  RH  054%=      5-min Rain = 0
KGO1 120313Z 36014KT M06/M14 A3061 RMK A01 T10621139  RH  054%=      5-min Rain = 0
KGO1 120314Z 00014KT M06/M14 A3061 RMK A01 T10621139  RH  054%=      5-min Rain = 0
KGO1 120315Z 00013KT M06/M14 A3061 RMK A01 T10621139  RH  054%=      5-min Rain = 0
KGO1 120316Z 00013KT M06/M14 A3061 RMK A01 T10621139  RH  055%=      5-min Rain = 0
KGO1 120317Z 36014KT M06/M14 A3061 RMK A01 T10631139  RH  055%=      5-min Rain = 0
KGO1 120318Z 00013KT M06/M14 A3061 RMK A01 T10631139  RH  055%=      5-min Rain = 0
KGO1 120319Z 36013KT M06/M14 A306 RMK A01 T10631138  RH  055%=      5-min Rain = 0
KGO1 120320Z 36013KT M06/M14 A306 RMK A01 T10631138  RH  055%=      5-min Rain = 0
KGO1 120321Z 00014KT M06/M14 A306 RMK A01 T10641138  RH  056%=      5-min Rain = 0
KGO1 120322Z 01015KT M06/M14 A306 RMK A01 T10641139  RH  055%=      5-min Rain = 0
KGO1 120323Z 00016KT M06/M14 A306 RMK A01 T10641139  RH  055%=      5-min Rain = 0
KGO1 120324Z 00014KT M06/M14 A306 RMK A01 T10631139  RH  055%=      5-min Rain = 0
KGO1 120325Z 00014KT M06/M14 A306 RMK A01 T10631139  RH  055%=      5-min Rain = 0
KGO1 120326Z 00013KT M06/M14 A3061 RMK A01 T10641139  RH  055%=      5-min Rain = 0
KGO1 120327Z 00012KT M06/M14 A3061 RMK A01 T10641139  RH  055%=      5-min Rain = 0
KGO1 120328Z 00013KT M06/M14 A3061 RMK A01 T10641139  RH  055%=      5-min Rain = 0
KGO1 120329Z 36015KT M07/M14 A3061 RMK A01 T10651139  RH  056%=      5-min Rain = 0
KGO1 120330Z 00014KT M07/M14 A3061 RMK A01 T10651139  RH  056%=      5-min Rain = 0
KGO1 120331Z 00013KT M06/M14 A3061 RMK A01 T10641139  RH  056%=      5-min Rain = 0
KGO1 120332Z 00013KT M06/M14 A3061 RMK A01 T10641139  RH  056%=      5-min Rain = 0
KGO1 120333Z 00012KT M07/M14 A3061 RMK A01 T10651139  RH  056%=      5-min Rain = 0
KGO1 120334Z 00014KT M07/M14 A3061 RMK A01 T10661139  RH  056%=      5-min Rain = 0
KGO1 120335Z 00013KT M07/M14 A3061 RMK A01 T10661139  RH  056%=      5-min Rain = 0
KGO1 120336Z 00013KT M07/M14 A3061 RMK A01 T10651138  RH  056%=      5-min Rain = 0
KGO1 120337Z 00013KT M07/M14 A3061 RMK A01 T10651139  RH  056%=      5-min Rain = 0
KGO1 120338Z 00014KT M07/M14 A3061 RMK A01 T10661139  RH  056%=      5-min Rain = 0
KGO1 120339Z 00014KT M07/M14 A3061 RMK A01 T10661139  RH  056%=      5-min Rain = 0
KGO1 120340Z 00013KT M07/M14 A3061 RMK A01 T10661139  RH  056%=      5-min Rain = 0
KGO1 120341Z 36013KT M07/M14 A3061 RMK A01 T10661139  RH  056%=      5-min Rain = 0
KGO1 120342Z 00012KT M07/M14 A3061 RMK A01 T10661139  RH  056%=      5-min Rain = 0
KGO1 120343Z 00012KT M07/M14 A3061 RMK A01 T10661139  RH  056%=      5-min Rain = 0
KGO1 120344Z 00012KT M07/M14 A3061 RMK A01 T10671139  RH  056%=      5-min Rain = 0
KGO1 120345Z 00011KT M07/M14 A3061 RMK A01 T10681139  RH  057%=      5-min Rain = 0
KGO1 120346Z 00013KT M07/M14 A3061 RMK A01 T10681139  RH  057%=      5-min Rain = 0
KGO1 120347Z 00012KT M07/M14 A3061 RMK A01 T10681139  RH  057%=      5-min Rain = 0
KGO1 120348Z 00012KT M07/M14 A3061 RMK A01 T10681139  RH  057%=      5-min Rain = 0
KGO1 120349Z 00013KT M07/M14 A3061 RMK A01 T10691139  RH  058%=      5-min Rain = 0
KGO1 120350Z 36013KT M07/M14 A3061 RMK A01 T10691139  RH  058%=      5-min Rain = 0
KGO1 120351Z 36012KT M07/M14 A3061 RMK A01 T10691139  RH  058%=      5-min Rain = 0
KGO1 120352Z 00013KT M07/M14 A3061 RMK A01 T10691139  RH  058%=      5-min Rain = 0
KGO1 120353Z 36012KT M07/M14 A3061 RMK A01 T10691139  RH  058%=      5-min Rain = 0
KGO1 120354Z 36013KT M07/M14 A3061 RMK A01 T10701139  RH  058%=      5-min Rain = 0
KGO1 120355Z 36013KT M07/M14 A3061 RMK A01 T10691138  RH  058%=      5-min Rain = 0
KGO1 120356Z 36012KT M07/M14 A3061 RMK A01 T10691138  RH  058%=      5-min Rain = 0
KGO1 120357Z 36012KT M07/M14 A3062 RMK A01 T10701139  RH  058%=      5-min Rain = 0
KGO1 120358Z 36012KT M07/M14 A3062 RMK A01 T10701139  RH  058%=      5-min Rain = 0
KGO1 120359Z 35012KT M07/M14 A3062 RMK A01 T10701139  RH  058%=      5-min Rain = 0
KGO1 120400Z 36011KT M07/M14 A3062 RMK A01 T10701139  RH  058%=      5-min Rain = 0
KGO1 120401Z 00011KT M07/M14 A3062 RMK A01 T10711139  RH  058%=      5-min Rain = 0
KGO1 120402Z 36012KT M07/M14 A3062 RMK A01 T10711139  RH  058%=      5-min Rain = 0
KGO1 120403Z 01012KT M07/M14 A3062 RMK A01 T10711139  RH  058%=      5-min Rain = 0
KGO1 120404Z 00012KT M07/M14 A3062 RMK A01 T10711139  RH  058%=      5-min Rain = 0
KGO1 120405Z 36012KT M07/M14 A3062 RMK A01 T10711139  RH  058%=      5-min Rain = 0
KGO1 120406Z 00010KT M07/M14 A3062 RMK A01 T10721139  RH  059%=      5-min Rain = 0
KGO1 120407Z 00012KT M07/M14 A3062 RMK A01 T10721139  RH  059%=      5-min Rain = 0
KGO1 120408Z 35011KT M07/M14 A3062 RMK A01 T10721139  RH  059%=      5-min Rain = 0
KGO1 120409Z 00010KT M07/M14 A3062 RMK A01 T10721139  RH  059%=      5-min Rain = 0
KGO1 120410Z 35013KT M07/M14 A3062 RMK A01 T10731139  RH  059%=      5-min Rain = 0
KGO1 120411Z 36011KT M07/M14 A3062 RMK A01 T10731139  RH  059%=      5-min Rain = 0
KGO1 120412Z 36012KT M07/M14 A3062 RMK A01 T10721139  RH  059%=      5-min Rain = 0
KGO1 120413Z 00011KT M07/M14 A3062 RMK A01 T10731139  RH  059%=      5-min Rain = 0
KGO1 120414Z 36011KT M07/M14 A3062 RMK A01 T10731139  RH  059%=      5-min Rain = 0
KGO1 120415Z 00012KT M07/M14 A3062 RMK A01 T10731139  RH  059%=      5-min Rain = 0
KGO1 120416Z 36012KT M07/M14 A3062 RMK A01 T10731139  RH  059%=      5-min Rain = 0
KGO1 120417Z 36012KT M07/M14 A3062 RMK A01 T10731140  RH  059%=      5-min Rain = 0
KGO1 120418Z 00013KT M07/M14 A3062 RMK A01 T10741140  RH  059%=      5-min Rain = 0
KGO1 120419Z 00012KT M07/M14 A3062 RMK A01 T10731140  RH  059%=      5-min Rain = 0
KGO1 120420Z 00012KT M07/M14 A3062 RMK A01 T10731140  RH  059%=      5-min Rain = 0
KGO1 120421Z 00011KT M07/M14 A3062 RMK A01 T10741140  RH  059%=      5-min Rain = 0
KGO1 120422Z 00011KT M07/M14 A3062 RMK A01 T10741140  RH  059%=      5-min Rain = 0
KGO1 120423Z 00010KT M08/M14 A3062 RMK A01 T10751140  RH  060%=      5-min Rain = 0
KGO1 120424Z 00012KT M08/M14 A3062 RMK A01 T10751140  RH  060%=      5-min Rain = 0
KGO1 120425Z 00011KT M08/M14 A3062 RMK A01 T10761141  RH  060%=      5-min Rain = 0
KGO1 120426Z 00012KT M08/M14 A3062 RMK A01 T10761140  RH  060%=      5-min Rain = 0
KGO1 120427Z 01012KT M08/M14 A3062 RMK A01 T10761141  RH  060%=      5-min Rain = 0
KGO1 120428Z 00011KT M08/M14 A3062 RMK A01 T10751140  RH  060%=      5-min Rain = 0
KGO1 120429Z 36010KT M08/M14 A3062 RMK A01 T10761141  RH  060%=      5-min Rain = 0
KGO1 120430Z 36011KT M08/M14 A3062 RMK A01 T10771141  RH  060%=      5-min Rain = 0
KGO1 120431Z 00011KT M08/M14 A3062 RMK A01 T10771141  RH  060%=      5-min Rain = 0
KGO1 120432Z 00011KT M08/M14 A3062 RMK A01 T10771141  RH  060%=      5-min Rain = 0
KGO1 120433Z 00011KT M08/M14 A3062 RMK A01 T10771141  RH  060%=      5-min Rain = 0
KGO1 120434Z 01010KT M08/M14 A3062 RMK A01 T10771141  RH  060%=      5-min Rain = 0
KGO1 120435Z 00010KT M08/M14 A3062 RMK A01 T10771141  RH  060%=      5-min Rain = 0
KGO1 120436Z 00010KT M08/M14 A3062 RMK A01 T10771141  RH  060%=      5-min Rain = 0
KGO1 120437Z 00010KT M08/M14 A3062 RMK A01 T10781142  RH  060%=      5-min Rain = 0
KGO1 120438Z 00010KT M08/M14 A3062 RMK A01 T10791142  RH  060%=      5-min Rain = 0
KGO1 120439Z 01009KT M08/M14 A3062 RMK A01 T10791142  RH  061%=      5-min Rain = 0
KGO1 120440Z 00009KT M08/M14 A3062 RMK A01 T10791142  RH  061%=      5-min Rain = 0
KGO1 120441Z 01010KT M08/M14 A3062 RMK A01 T10791142  RH  061%=      5-min Rain = 0
KGO1 120442Z 01009KT M08/M14 A3062 RMK A01 T10801142  RH  061%=      5-min Rain = 0
KGO1 120443Z 00011KT M08/M14 A3062 RMK A01 T10801142  RH  061%=      5-min Rain = 0
KGO1 120444Z 01010KT M08/M14 A3062 RMK A01 T10791142  RH  061%=      5-min Rain = 0
KGO1 120445Z 00009KT M08/M14 A3062 RMK A01 T10791141  RH  061%=      5-min Rain = 0
KGO1 120446Z 01010KT M08/M14 A3062 RMK A01 T10801142  RH  061%=      5-min Rain = 0
KGO1 120447Z 01009KT M08/M14 A3062 RMK A01 T10811142  RH  061%=      5-min Rain = 0
KGO1 120448Z 01011KT M08/M14 A3062 RMK A01 T10811142  RH  062%=      5-min Rain = 0
KGO1 120449Z 01010KT M08/M14 A3062 RMK A01 T10811141  RH  062%=      5-min Rain = 0
KGO1 120450Z 01009KT M08/M14 A3062 RMK A01 T10811141  RH  062%=      5-min Rain = 0
KGO1 120451Z 01008KT M08/M14 A3062 RMK A01 T10821142  RH  062%=      5-min Rain = 0
KGO1 120452Z 01009KT M08/M14 A3062 RMK A01 T10821142  RH  062%=      5-min Rain = 0
KGO1 120453Z 01009KT M08/M14 A3062 RMK A01 T10821141  RH  062%=      5-min Rain = 0
KGO1 120454Z 01009KT M08/M14 A3062 RMK A01 T10821141  RH  062%=      5-min Rain = 0
KGO1 120455Z 01010KT M08/M14 A3062 RMK A01 T10821141  RH  062%=      5-min Rain = 0
KGO1 120456Z 01009KT M08/M14 A3062 RMK A01 T10821141  RH  063%=      5-min Rain = 0
KGO1 120457Z 01010KT M08/M14 A3062 RMK A01 T10831141  RH  063%=      5-min Rain = 0
KGO1 120458Z 01009KT M08/M14 A3062 RMK A01 T10831141  RH  063%=      5-min Rain = 0
KGO1 120459Z 01009KT M08/M14 A3062 RMK A01 T10831141  RH  063%=      5-min Rain = 0
KGO1 120500Z 01009KT M08/M14 A3062 RMK A01 T10831141  RH  063%=      5-min Rain = 0
KGO1 120501Z 01009KT M08/M14 A3062 RMK A01 T10841141  RH  063%=      5-min Rain = 0
KGO1 120502Z 01009KT M08/M14 A3062 RMK A01 T10841141  RH  063%=      5-min Rain = 0
KGO1 120503Z 01009KT M08/M14 A3062 RMK A01 T10841141  RH  064%=      5-min Rain = 0
KGO1 120504Z 01008KT M08/M14 A3062 RMK A01 T10841141  RH  064%=      5-min Rain = 0
KGO1 120505Z 01009KT M09/M14 A3062 RMK A01 T10851141  RH  064%=      5-min Rain = 0
KGO1 120506Z 01008KT M09/M14 A3062 RMK A01 T10861141  RH  064%=      5-min Rain = 0
KGO1 120507Z 01008KT M09/M14 A3062 RMK A01 T10851141  RH  064%=      5-min Rain = 0
KGO1 120508Z 01008KT M09/M14 A3062 RMK A01 T10851141  RH  064%=      5-min Rain = 0
KGO1 120509Z 01008KT M09/M14 A3062 RMK A01 T10861142  RH  064%=      5-min Rain = 0
KGO1 120510Z 01008KT M09/M14 A3062 RMK A01 T10861141  RH  064%=      5-min Rain = 0
KGO1 120511Z 01008KT M08/M14 A3062 RMK A01 T10841141  RH  064%=      5-min Rain = 0
KGO1 120512Z 01008KT M08/M14 A3062 RMK A01 T10841141  RH  063%=      5-min Rain = 0
KGO1 120513Z 01007KT M08/M14 A3062 RMK A01 T10841141  RH  063%=      5-min Rain = 0
KGO1 120514Z 01007KT M09/M14 A3062 RMK A01 T10851142  RH  063%=      5-min Rain = 0
KGO1 120515Z 01007KT M09/M14 A3062 RMK A01 T10861143  RH  064%=      5-min Rain = 0
KGO1 120516Z 02006KT M09/M14 A3062 RMK A01 T10871142  RH  064%=      5-min Rain = 0
KGO1 120517Z 02006KT M09/M14 A3062 RMK A01 T10881143  RH  065%=      5-min Rain = 0
KGO1 120518Z 02006KT M09/M14 A3062 RMK A01 T10891143  RH  065%=      5-min Rain = 0
KGO1 120519Z 02007KT M09/M14 A3062 RMK A01 T10901143  RH  065%=      5-min Rain = 0
KGO1 120520Z 02006KT M09/M14 A3062 RMK A01 T10911143  RH  066%=      5-min Rain = 0
KGO1 120521Z 02007KT M09/M14 A3062 RMK A01 T10911143  RH  066%=      5-min Rain = 0
KGO1 120522Z 01007KT M09/M14 A3062 RMK A01 T10911143  RH  066%=      5-min Rain = 0
KGO1 120523Z 02007KT M09/M14 A3062 RMK A01 T10901143  RH  066%=      5-min Rain = 0
KGO1 120524Z 02008KT M09/M14 A3062 RMK A01 T10901143  RH  065%=      5-min Rain = 0
KGO1 120525Z 02009KT M09/M14 A3062 RMK A01 T10901143  RH  065%=      5-min Rain = 0
KGO1 120526Z 01008KT M09/M14 A3062 RMK A01 T10891143  RH  065%=      5-min Rain = 0
KGO1 120527Z 01007KT M09/M14 A3062 RMK A01 T10891142  RH  065%=      5-min Rain = 0
KGO1 120528Z 01008KT M09/M14 A3062 RMK A01 T10891143  RH  065%=      5-min Rain = 0
KGO1 120529Z 01008KT M09/M14 A3062 RMK A01 T10901143  RH  065%=      5-min Rain = 0
KGO1 120530Z 01007KT M09/M14 A3062 RMK A01 T10901143  RH  065%=      5-min Rain = 0
KGO1 120531Z 00007KT M09/M14 A3062 RMK A01 T10901143  RH  066%=      5-min Rain = 0
KGO1 120532Z 01008KT M09/M14 A3062 RMK A01 T10911143  RH  066%=      5-min Rain = 0
KGO1 120533Z 01007KT M09/M14 A3062 RMK A01 T10911143  RH  066%=      5-min Rain = 0
KGO1 120534Z 01007KT M09/M14 A3062 RMK A01 T10901143  RH  066%=      5-min Rain = 0
KGO1 120535Z 00008KT M09/M14 A3062 RMK A01 T10901143  RH  066%=      5-min Rain = 0
KGO1 120536Z 01007KT M09/M14 A3062 RMK A01 T10911143  RH  066%=      5-min Rain = 0
KGO1 120537Z 01007KT M09/M14 A3062 RMK A01 T10901143  RH  066%=      5-min Rain = 0
KGO1 120538Z 01007KT M09/M14 A3062 RMK A01 T10911143  RH  066%=      5-min Rain = 0
KGO1 120539Z 01007KT M09/M14 A3062 RMK A01 T10921144  RH  066%=      5-min Rain = 0
KGO1 120540Z 00007KT M09/M14 A3062 RMK A01 T10921144  RH  066%=      5-min Rain = 0
KGO1 120541Z 00006KT M09/M14 A3062 RMK A01 T10931144  RH  066%=      5-min Rain = 0
KGO1 120542Z 01007KT M09/M14 A3062 RMK A01 T10931144  RH  067%=      5-min Rain = 0
KGO1 120543Z 01007KT M09/M14 A3062 RMK A01 T10931144  RH  067%=      5-min Rain = 0
KGO1 120544Z 01007KT M09/M14 A3062 RMK A01 T10921143  RH  066%=      5-min Rain = 0
KGO1 120545Z 01007KT M09/M14 A3062 RMK A01 T10911143  RH  066%=      5-min Rain = 0
KGO1 120546Z 01008KT M09/M14 A3062 RMK A01 T10911143  RH  066%=      5-min Rain = 0
KGO1 120547Z 01007KT M09/M14 A3062 RMK A01 T10911143  RH  066%=      5-min Rain = 0
KGO1 120548Z 01007KT M09/M14 A3062 RMK A01 T10901143  RH  065%=      5-min Rain = 0
KGO1 120549Z 01007KT M09/M14 A3062 RMK A01 T10901144  RH  065%=      5-min Rain = 0
KGO1 120550Z 02007KT M09/M14 A3062 RMK A01 T10911144  RH  065%=      5-min Rain = 0
KGO1 120551Z 01008KT M09/M14 A3062 RMK A01 T10911144  RH  065%=      5-min Rain = 0
KGO1 120552Z 02007KT M09/M14 A3062 RMK A01 T10911144  RH  065%=      5-min Rain = 0
KGO1 120553Z 02007KT M09/M14 A3062 RMK A01 T10901144  RH  065%=      5-min Rain = 0
KGO1 120554Z 01007KT M09/M15 A3062 RMK A01 T10911145  RH  065%=      5-min Rain = 0
KGO1 120555Z 01007KT M09/M15 A3062 RMK A01 T10911145  RH  065%=      5-min Rain = 0
KGO1 120556Z 01007KT M09/M14 A3062 RMK A01 T10911144  RH  065%=      5-min Rain = 0
KGO1 120557Z 01007KT M09/M15 A3062 RMK A01 T10921145  RH  065%=      5-min Rain = 0
KGO1 120558Z 01007KT M09/M15 A3062 RMK A01 T10931146  RH  066%=      5-min Rain = 0
KGO1 120559Z 01007KT M09/M15 A3062 RMK A01 T10931145  RH  066%=      5-min Rain = 0

Page generated in 0.0786 seconds.